Observation data for Guadalupe Mtns Park on 03/24/2019      Previous  Date  Next       Current Mesonet Observations  Soil Data  Daily Summary Page  Observations in Plain Language
KGU1 240500Z 27011KT 15/M08 A3011 RMK A01 T01451077  RH  021%=      5-min Rain = 0
KGU1 240501Z 28011KT 15/M08 A3011 RMK A01 T01451076  RH  021%=      5-min Rain = 0
KGU1 240502Z 27011KT 14/M08 A3011 RMK A01 T01441076  RH  021%=      5-min Rain = 0
KGU1 240503Z 26013KT 14/M08 A3011 RMK A01 T01441076  RH  021%=      5-min Rain = 0
KGU1 240504Z 27012KT 15/M08 A3011 RMK A01 T01451077  RH  021%=      5-min Rain = 0
KGU1 240505Z 28011KT 15/M08 A3011 RMK A01 T01451076  RH  021%=      5-min Rain = 0
KGU1 240506Z 28013KT 15/M08 A3011 RMK A01 T01451076  RH  021%=      5-min Rain = 0
KGU1 240507Z 28012KT 15/M08 A3011 RMK A01 T01451077  RH  021%=      5-min Rain = 0
KGU1 240508Z 27012KT 15/M08 A3011 RMK A01 T01451077  RH  021%=      5-min Rain = 0
KGU1 240509Z 27010KT 14/M08 A3011 RMK A01 T01441077  RH  021%=      5-min Rain = 0
KGU1 240510Z 28012KT 14/M08 A3011 RMK A01 T01441076  RH  021%=      5-min Rain = 0
KGU1 240511Z 27013KT 14/M08 A3011 RMK A01 T01441077  RH  021%=      5-min Rain = 0
KGU1 240512Z 28014KT 15/M08 A3011 RMK A01 T01451077  RH  021%=      5-min Rain = 0
KGU1 240513Z 28014KT 15/M08 A3011 RMK A01 T01461077  RH  021%=      5-min Rain = 0
KGU1 240514Z 27016KT 15/M08 A3011 RMK A01 T01471077  RH  020%=      5-min Rain = 0
KGU1 240515Z 27015KT 15/M08 A3011 RMK A01 T01491078  RH  020%=      5-min Rain = 0
KGU1 240516Z 28017KT 15/M08 A3011 RMK A01 T01481078  RH  020%=      5-min Rain = 0
KGU1 240517Z 28014KT 15/M08 A3011 RMK A01 T01491078  RH  020%=      5-min Rain = 0
KGU1 240518Z 28016KT 15/M08 A3011 RMK A01 T01491077  RH  020%=      5-min Rain = 0
KGU1 240519Z 27015KT 15/M08 A3011 RMK A01 T01491078  RH  020%=      5-min Rain = 0
KGU1 240520Z 28015KT 15/M08 A3011 RMK A01 T01491077  RH  020%=      5-min Rain = 0
KGU1 240521Z 28013KT 15/M08 A3011 RMK A01 T01481077  RH  020%=      5-min Rain = 0
KGU1 240522Z 27014KT 15/M08 A3011 RMK A01 T01481077  RH  020%=      5-min Rain = 0
KGU1 240523Z 27014KT 15/M08 A3011 RMK A01 T01481078  RH  020%=      5-min Rain = 0
KGU1 240524Z 28011KT 15/M08 A3011 RMK A01 T01481077  RH  020%=      5-min Rain = 0
KGU1 240525Z 28011KT 15/M08 A3011 RMK A01 T01471076  RH  021%=      5-min Rain = 0
KGU1 240526Z 28012KT 15/M08 A3011 RMK A01 T01471076  RH  021%=      5-min Rain = 0
KGU1 240527Z 28013KT 15/M08 A301 RMK A01 T01461076  RH  021%=      5-min Rain = 0
KGU1 240528Z 28012KT 15/M08 A3011 RMK A01 T01461076  RH  021%=      5-min Rain = 0
KGU1 240529Z 28013KT 15/M08 A3011 RMK A01 T01451075  RH  021%=      5-min Rain = 0
KGU1 240530Z 27015KT 15/M08 A3011 RMK A01 T01451076  RH  021%=      5-min Rain = 0
KGU1 240531Z 28015KT 15/M08 A301 RMK A01 T01481077  RH  020%=      5-min Rain = 0
KGU1 240532Z 27011KT 15/M08 A301 RMK A01 T01491078  RH  020%=      5-min Rain = 0
KGU1 240533Z 27012KT 15/M08 A301 RMK A01 T01491077  RH  020%=      5-min Rain = 0
KGU1 240534Z 28012KT 15/M08 A3011 RMK A01 T01481076  RH  020%=      5-min Rain = 0
KGU1 240535Z 27015KT 15/M08 A301 RMK A01 T01471077  RH  020%=      5-min Rain = 0
KGU1 240536Z 27016KT 15/M08 A301 RMK A01 T01501078  RH  020%=      5-min Rain = 0
KGU1 240537Z 27013KT 15/M08 A301 RMK A01 T01521078  RH  020%=      5-min Rain = 0
KGU1 240538Z 27012KT 15/M08 A301 RMK A01 T01511077  RH  020%=      5-min Rain = 0
KGU1 240539Z 28016KT 15/M08 A301 RMK A01 T01501077  RH  020%=      5-min Rain = 0
KGU1 240540Z 28015G20KT 15/M08 A3011 RMK A01 T01521078  RH  020%=      5-min Rain = 0
KGU1 240541Z 27016KT 15/M08 A301 RMK A01 T01531078  RH  019%=      5-min Rain = 0
KGU1 240542Z 26017KT 15/M08 A301 RMK A01 T01531079  RH  019%=      5-min Rain = 0
KGU1 240543Z 27013KT 15/M08 A3011 RMK A01 T01541078  RH  019%=      5-min Rain = 0
KGU1 240544Z 27013G18KT 15/M08 A3011 RMK A01 T01521077  RH  020%=      5-min Rain = 0
KGU1 240545Z 26014KT 15/M08 A301 RMK A01 T01521078  RH  020%=      5-min Rain = 0
KGU1 240546Z 27014KT 15/M08 A3011 RMK A01 T01541079  RH  019%=      5-min Rain = 0
KGU1 240547Z 27010KT 15/M08 A3011 RMK A01 T01541079  RH  019%=      5-min Rain = 0
KGU1 240548Z 28008KT 15/M08 A3011 RMK A01 T01541078  RH  019%=      5-min Rain = 0
KGU1 240549Z 26009KT 15/M08 A3011 RMK A01 T01521077  RH  020%=      5-min Rain = 0
KGU1 240550Z 26011KT 15/M08 A3011 RMK A01 T01511078  RH  020%=      5-min Rain = 0
KGU1 240551Z 26010KT 15/M08 A3011 RMK A01 T01521078  RH  020%=      5-min Rain = 0
KGU1 240552Z 26012KT 15/M08 A3011 RMK A01 T01521078  RH  020%=      5-min Rain = 0
KGU1 240553Z 25013KT 15/M08 A3011 RMK A01 T01531078  RH  020%=      5-min Rain = 0
KGU1 240554Z 25012KT 15/M08 A3011 RMK A01 T01541079  RH  019%=      5-min Rain = 0
KGU1 240555Z 26010KT 16/M08 A3011 RMK A01 T01561077  RH  019%=      5-min Rain = 0
KGU1 240556Z 25009KT 16/M08 A3011 RMK A01 T01551077  RH  020%=      5-min Rain = 0
KGU1 240557Z 24009KT 15/M08 A3011 RMK A01 T01541078  RH  020%=      5-min Rain = 0
KGU1 240558Z 27011G16KT 15/M08 A3011 RMK A01 T01541077  RH  020%=      5-min Rain = 0
KGU1 240559Z 26011KT 15/M08 A3011 RMK A01 T01541077  RH  020%=      5-min Rain = 0
KGU1 240600Z 25009KT 15/M08 A3011 RMK A01 T01541077  RH  020%=      5-min Rain = 0
KGU1 240601Z 26008KT 15/M08 A3011 RMK A01 T01531077  RH  020%=      5-min Rain = 0
KGU1 240602Z 25007KT 15/M08 A3011 RMK A01 T01531078  RH  020%=      5-min Rain = 0
KGU1 240603Z 25008KT 15/M08 A3011 RMK A01 T01531077  RH  020%=      5-min Rain = 0
KGU1 240604Z 25011KT 15/M08 A3011 RMK A01 T01521077  RH  020%=      5-min Rain = 0
KGU1 240605Z 25014G20KT 15/M08 A3011 RMK A01 T01531077  RH  020%=      5-min Rain = 0
KGU1 240606Z 24019G24KT 16/M08 A3011 RMK A01 T01551078  RH  019%=      5-min Rain = 0
KGU1 240607Z 25013G20KT 16/M08 A3011 RMK A01 T01571078  RH  019%=      5-min Rain = 0
KGU1 240608Z 24009KT 16/M08 A3011 RMK A01 T01571078  RH  019%=      5-min Rain = 0
KGU1 240609Z 23011KT 16/M08 A3011 RMK A01 T01561077  RH  019%=      5-min Rain = 0
KGU1 240610Z 24012KT 16/M08 A3011 RMK A01 T01561077  RH  019%=      5-min Rain = 0
KGU1 240611Z 24010KT 16/M08 A3011 RMK A01 T01561077  RH  019%=      5-min Rain = 0
KGU1 240612Z 25009KT 16/M08 A3011 RMK A01 T01561077  RH  019%=      5-min Rain = 0
KGU1 240613Z 23009KT 15/M08 A3011 RMK A01 T01541077  RH  020%=      5-min Rain = 0
KGU1 240614Z 27007KT 15/M08 A3011 RMK A01 T01511077  RH  020%=      5-min Rain = 0
KGU1 240615Z 22008KT 15/M08 A3011 RMK A01 T01501076  RH  020%=      5-min Rain = 0
KGU1 240616Z 24011G19KT 15/M08 A3011 RMK A01 T01481076  RH  021%=      5-min Rain = 0
KGU1 240617Z 24017KT 15/M08 A3011 RMK A01 T01491077  RH  020%=      5-min Rain = 0
KGU1 240618Z 24014G22KT 15/M08 A3011 RMK A01 T01531077  RH  020%=      5-min Rain = 0
KGU1 240619Z 25009KT 15/M08 A3011 RMK A01 T01531077  RH  020%=      5-min Rain = 0
KGU1 240620Z 25007KT 15/M08 A3011 RMK A01 T01521077  RH  020%=      5-min Rain = 0
KGU1 240621Z 22007KT 15/M08 A3011 RMK A01 T01501076  RH  020%=      5-min Rain = 0
KGU1 240622Z 21006KT 14/M08 A3011 RMK A01 T01441077  RH  021%=      5-min Rain = 0
KGU1 240623Z 21010KT 14/M08 A3011 RMK A01 T01361077  RH  022%=      5-min Rain = 0
KGU1 240624Z 20009KT 13/M08 A3011 RMK A01 T01281079  RH  023%=      5-min Rain = 0
KGU1 240625Z 20009G14KT 12/M08 A3011 RMK A01 T01231078  RH  024%=      5-min Rain = 0
KGU1 240626Z 22007KT 12/M08 A3011 RMK A01 T01201079  RH  024%=      5-min Rain = 0
KGU1 240627Z 21011KT 12/M08 A3011 RMK A01 T01191079  RH  024%=      5-min Rain = 0
KGU1 240628Z 22010KT 12/M08 A3011 RMK A01 T01211078  RH  024%=      5-min Rain = 0
KGU1 240629Z 22010KT 13/M08 A3011 RMK A01 T01251078  RH  024%=      5-min Rain = 0
KGU1 240630Z 21008KT 12/M08 A3011 RMK A01 T01231079  RH  024%=      5-min Rain = 0
KGU1 240631Z 21006KT 12/M08 A3011 RMK A01 T01211078  RH  024%=      5-min Rain = 0
KGU1 240632Z 24010G16KT 12/M08 A3011 RMK A01 T01181079  RH  024%=      5-min Rain = 0
KGU1 240633Z 24012KT 12/M08 A3011 RMK A01 T01231078  RH  024%=      5-min Rain = 0
KGU1 240634Z 20008KT 13/M08 A3011 RMK A01 T01271079  RH  023%=      5-min Rain = 0
KGU1 240635Z 20009KT 12/M08 A3011 RMK A01 T01241078  RH  024%=      5-min Rain = 0
KGU1 240636Z 20008KT 12/M08 A3011 RMK A01 T01201078  RH  024%=      5-min Rain = 0
KGU1 240637Z 23006KT 12/M08 A3011 RMK A01 T01191078  RH  024%=      5-min Rain = 0
KGU1 240638Z 24009KT 12/M08 A3011 RMK A01 T01211078  RH  024%=      5-min Rain = 0
KGU1 240639Z 26008KT 13/M08 A3011 RMK A01 T01261078  RH  023%=      5-min Rain = 0
KGU1 240640Z 23006KT 13/M08 A3011 RMK A01 T01301078  RH  023%=      5-min Rain = 0
KGU1 240641Z 25010KT 13/M08 A3011 RMK A01 T01301079  RH  023%=      5-min Rain = 0
KGU1 240642Z 27009KT 14/M08 A3011 RMK A01 T01351078  RH  022%=      5-min Rain = 0
KGU1 240643Z 25010KT 14/M08 A3011 RMK A01 T01351077  RH  022%=      5-min Rain = 0
KGU1 240644Z 26007KT 14/M08 A3011 RMK A01 T01351078  RH  022%=      5-min Rain = 0
KGU1 240645Z 24010KT 14/M08 A3011 RMK A01 T01361078  RH  022%=      5-min Rain = 0
KGU1 240646Z 25011KT 14/M08 A3011 RMK A01 T01411079  RH  021%=      5-min Rain = 0
KGU1 240647Z 26010KT 14/M08 A3011 RMK A01 T01441079  RH  021%=      5-min Rain = 0
KGU1 240648Z 25010KT 14/M08 A3011 RMK A01 T01441079  RH  021%=      5-min Rain = 0
KGU1 240649Z 25009KT 15/M08 A3011 RMK A01 T01451079  RH  020%=      5-min Rain = 0
KGU1 240650Z 27008KT 15/M08 A3011 RMK A01 T01461079  RH  020%=      5-min Rain = 0
KGU1 240651Z 27008KT 15/M08 A3011 RMK A01 T01461078  RH  021%=      5-min Rain = 0
KGU1 240652Z 27009KT 14/M08 A3011 RMK A01 T01441078  RH  021%=      5-min Rain = 0
KGU1 240653Z 26010KT 14/M08 A3011 RMK A01 T01431079  RH  021%=      5-min Rain = 0
KGU1 240654Z 24010KT 14/M08 A3011 RMK A01 T01441079  RH  021%=      5-min Rain = 0
KGU1 240655Z 24011KT 15/M08 A3011 RMK A01 T01461080  RH  020%=      5-min Rain = 0
KGU1 240656Z 25011KT 15/M08 A3011 RMK A01 T01481080  RH  020%=      5-min Rain = 0
KGU1 240657Z 24011KT 15/M08 A3011 RMK A01 T01491081  RH  020%=      5-min Rain = 0
KGU1 240658Z 23010KT 15/M08 A3011 RMK A01 T01491080  RH  020%=      5-min Rain = 0
KGU1 240659Z 23010G16KT 15/M08 A3011 RMK A01 T01461079  RH  020%=      5-min Rain = 0
KGU1 240700Z 24007KT 14/M08 A3011 RMK A01 T01441079  RH  021%=      5-min Rain = 0
KGU1 240701Z 21008KT 14/M08 A3012 RMK A01 T01421079  RH  021%=      5-min Rain = 0
KGU1 240702Z 22008KT 13/M08 A3012 RMK A01 T01341078  RH  022%=      5-min Rain = 0
KGU1 240703Z 22008KT 13/M08 A3012 RMK A01 T01261079  RH  023%=      5-min Rain = 0
KGU1 240704Z 23008KT 12/M08 A3012 RMK A01 T01221079  RH  024%=      5-min Rain = 0
KGU1 240705Z 22007KT 12/M08 A3012 RMK A01 T01231078  RH  024%=      5-min Rain = 0
KGU1 240706Z 23008KT 13/M08 A3011 RMK A01 T01271079  RH  023%=      5-min Rain = 0
KGU1 240707Z 24009KT 13/M08 A3011 RMK A01 T01341079  RH  022%=      5-min Rain = 0
KGU1 240708Z 24006KT 14/M08 A3012 RMK A01 T01401080  RH  021%=      5-min Rain = 0
KGU1 240709Z 23007KT 14/M08 A3012 RMK A01 T01391079  RH  021%=      5-min Rain = 0
KGU1 240710Z 22008KT 14/M08 A3011 RMK A01 T01351078  RH  022%=      5-min Rain = 0
KGU1 240711Z 22008KT 14/M08 A3011 RMK A01 T01371079  RH  022%=      5-min Rain = 0
KGU1 240712Z 22007KT 14/M08 A3011 RMK A01 T01391079  RH  021%=      5-min Rain = 0
KGU1 240713Z 21009KT 14/M08 A3011 RMK A01 T01371078  RH  022%=      5-min Rain = 0
KGU1 240714Z 22008KT 14/M08 A3011 RMK A01 T01351078  RH  022%=      5-min Rain = 0
KGU1 240715Z 24012KT 13/M08 A3011 RMK A01 T01321078  RH  022%=      5-min Rain = 0
KGU1 240716Z 23009KT 13/M08 A3011 RMK A01 T01321078  RH  022%=      5-min Rain = 0
KGU1 240717Z 23008KT 13/M08 A3011 RMK A01 T01331078  RH  022%=      5-min Rain = 0
KGU1 240718Z 22007KT 13/M08 A3011 RMK A01 T01321078  RH  023%=      5-min Rain = 0
KGU1 240719Z 22008KT 13/M08 A3011 RMK A01 T01291078  RH  023%=      5-min Rain = 0
KGU1 240720Z 22007KT 13/M08 A3012 RMK A01 T01251078  RH  023%=      5-min Rain = 0
KGU1 240721Z 24007G12KT 12/M08 A3011 RMK A01 T01231079  RH  024%=      5-min Rain = 0
KGU1 240722Z 23010KT 13/M08 A3011 RMK A01 T01281079  RH  023%=      5-min Rain = 0
KGU1 240723Z 23005KT 13/M08 A3012 RMK A01 T01341079  RH  022%=      5-min Rain = 0
KGU1 240724Z 24004KT 14/M08 A3012 RMK A01 T01361079  RH  022%=      5-min Rain = 0
KGU1 240725Z 22005KT 14/M08 A3012 RMK A01 T01361078  RH  022%=      5-min Rain = 0
KGU1 240726Z 22007KT 14/M08 A3012 RMK A01 T01351078  RH  022%=      5-min Rain = 0
KGU1 240727Z 21008KT 13/M08 A3012 RMK A01 T01321078  RH  022%=      5-min Rain = 0
KGU1 240728Z 19012G19KT 13/M08 A3011 RMK A01 T01301078  RH  023%=      5-min Rain = 0
KGU1 240729Z 22010G16KT 13/M08 A3011 RMK A01 T01321078  RH  022%=      5-min Rain = 0
KGU1 240730Z 21008KT 13/M08 A3012 RMK A01 T01331080  RH  022%=      5-min Rain = 0
KGU1 240731Z 24008KT 13/M08 A3012 RMK A01 T01341079  RH  022%=      5-min Rain = 0
KGU1 240732Z 22007KT 13/M08 A3012 RMK A01 T01321079  RH  022%=      5-min Rain = 0
KGU1 240733Z 22009KT 13/M08 A3012 RMK A01 T01311079  RH  022%=      5-min Rain = 0
KGU1 240734Z 22008KT 13/M08 A3011 RMK A01 T01281079  RH  023%=      5-min Rain = 0
KGU1 240735Z 24010G16KT 13/M08 A3011 RMK A01 T01281080  RH  023%=      5-min Rain = 0
KGU1 240736Z 22009KT 13/M08 A3011 RMK A01 T01321079  RH  022%=      5-min Rain = 0
KGU1 240737Z 21010KT 13/M08 A3012 RMK A01 T01341079  RH  022%=      5-min Rain = 0
KGU1 240738Z 21012KT 13/M08 A3012 RMK A01 T01341079  RH  022%=      5-min Rain = 0
KGU1 240739Z 22010KT 13/M08 A3012 RMK A01 T01331080  RH  022%=      5-min Rain = 0
KGU1 240740Z 22009KT 13/M08 A3012 RMK A01 T01311080  RH  022%=      5-min Rain = 0
KGU1 240741Z 22009KT 13/M08 A3012 RMK A01 T01301080  RH  022%=      5-min Rain = 0
KGU1 240742Z 22008KT 13/M08 A3012 RMK A01 T01301079  RH  022%=      5-min Rain = 0
KGU1 240743Z 22010KT 13/M08 A3012 RMK A01 T01311079  RH  022%=      5-min Rain = 0
KGU1 240744Z 22010KT 13/M08 A3012 RMK A01 T01321078  RH  022%=      5-min Rain = 0
KGU1 240745Z 21011KT 13/M08 A3012 RMK A01 T01341080  RH  022%=      5-min Rain = 0
KGU1 240746Z 22010KT 14/M08 A3012 RMK A01 T01361079  RH  022%=      5-min Rain = 0
KGU1 240747Z 22010KT 14/M08 A3012 RMK A01 T01381080  RH  021%=      5-min Rain = 0
KGU1 240748Z 23009KT 14/M08 A3012 RMK A01 T01401080  RH  021%=      5-min Rain = 0
KGU1 240749Z 24005KT 14/M08 A3012 RMK A01 T01401079  RH  021%=      5-min Rain = 0
KGU1 240750Z 23007KT 14/M08 A3013 RMK A01 T01391079  RH  021%=      5-min Rain = 0
KGU1 240751Z 23008KT 14/M08 A3013 RMK A01 T01381079  RH  021%=      5-min Rain = 0
KGU1 240752Z 23010KT 14/M08 A3012 RMK A01 T01361081  RH  021%=      5-min Rain = 0
KGU1 240753Z 25009G14KT 14/M08 A3013 RMK A01 T01351081  RH  021%=      5-min Rain = 0
KGU1 240754Z 26011G17KT 13/M08 A3013 RMK A01 T01341080  RH  022%=      5-min Rain = 0
KGU1 240755Z 26010KT 14/M08 A3013 RMK A01 T01351080  RH  022%=      5-min Rain = 0
KGU1 240756Z 23008KT 14/M08 A3013 RMK A01 T01371080  RH  021%=      5-min Rain = 0
KGU1 240757Z 23007KT 14/M08 A3013 RMK A01 T01381080  RH  021%=      5-min Rain = 0
KGU1 240758Z 24009KT 14/M08 A3013 RMK A01 T01371080  RH  021%=      5-min Rain = 0
KGU1 240759Z 22009KT 14/M08 A3013 RMK A01 T01361079  RH  022%=      5-min Rain = 0
KGU1 240800Z 24007G12KT 14/M08 A3013 RMK A01 T01351079  RH  022%=      5-min Rain = 0
KGU1 240801Z 24010KT 14/M08 A3013 RMK A01 T01361080  RH  021%=      5-min Rain = 0
KGU1 240802Z 25009KT 14/M08 A3013 RMK A01 T01371080  RH  021%=      5-min Rain = 0
KGU1 240803Z 24008KT 14/M08 A3013 RMK A01 T01371080  RH  021%=      5-min Rain = 0
KGU1 240804Z 25011G17KT 14/M08 A3013 RMK A01 T01381080  RH  021%=      5-min Rain = 0
KGU1 240805Z 25009KT 14/M08 A3013 RMK A01 T01401079  RH  021%=      5-min Rain = 0
KGU1 240806Z 25010KT 14/M08 A3012 RMK A01 T01401079  RH  021%=      5-min Rain = 0
KGU1 240807Z 25011KT 14/M08 A3012 RMK A01 T01411080  RH  021%=      5-min Rain = 0
KGU1 240808Z 23008KT 14/M08 A3013 RMK A01 T01411080  RH  021%=      5-min Rain = 0
KGU1 240809Z 22008KT 14/M08 A3012 RMK A01 T01401079  RH  021%=      5-min Rain = 0
KGU1 240810Z 23009KT 14/M08 A3012 RMK A01 T01381079  RH  021%=      5-min Rain = 0
KGU1 240811Z 24010KT 14/M08 A3012 RMK A01 T01381079  RH  021%=      5-min Rain = 0
KGU1 240812Z 24009KT 14/M08 A3012 RMK A01 T01381079  RH  021%=      5-min Rain = 0
KGU1 240813Z 22009KT 14/M08 A3012 RMK A01 T01381078  RH  022%=      5-min Rain = 0
KGU1 240814Z 22009KT 14/M08 A3012 RMK A01 T01381078  RH  022%=      5-min Rain = 0
KGU1 240815Z 23008KT 14/M08 A3012 RMK A01 T01391078  RH  021%=      5-min Rain = 0
KGU1 240816Z 22010KT 14/M08 A3012 RMK A01 T01391078  RH  021%=      5-min Rain = 0
KGU1 240817Z 23008KT 14/M08 A3012 RMK A01 T01391078  RH  022%=      5-min Rain = 0
KGU1 240818Z 23007KT 14/M08 A3012 RMK A01 T01381078  RH  022%=      5-min Rain = 0
KGU1 240819Z 22011G16KT 14/M08 A3012 RMK A01 T01381078  RH  022%=      5-min Rain = 0
KGU1 240820Z 22012KT 14/M08 A3012 RMK A01 T01401079  RH  021%=      5-min Rain = 0
KGU1 240821Z 23009KT 14/M08 A3012 RMK A01 T01421079  RH  021%=      5-min Rain = 0
KGU1 240822Z 24010KT 14/M08 A3012 RMK A01 T01431079  RH  021%=      5-min Rain = 0
KGU1 240823Z 24011KT 14/M08 A3012 RMK A01 T01431079  RH  021%=      5-min Rain = 0
KGU1 240824Z 22009KT 14/M08 A3012 RMK A01 T01421078  RH  021%=      5-min Rain = 0
KGU1 240825Z 23013KT 14/M08 A3012 RMK A01 T01411078  RH  021%=      5-min Rain = 0
KGU1 240826Z 24013KT 14/M08 A3012 RMK A01 T01421078  RH  021%=      5-min Rain = 0
KGU1 240827Z 24008KT 14/M08 A3013 RMK A01 T01441078  RH  021%=      5-min Rain = 0
KGU1 240828Z 23009KT 14/M08 A3013 RMK A01 T01441078  RH  021%=      5-min Rain = 0
KGU1 240829Z 24008KT 14/M08 A3013 RMK A01 T01431078  RH  021%=      5-min Rain = 0
KGU1 240830Z 25009KT 14/M08 A3013 RMK A01 T01411078  RH  021%=      5-min Rain = 0
KGU1 240831Z 25009KT 14/M08 A3013 RMK A01 T01411077  RH  021%=      5-min Rain = 0
KGU1 240832Z 24009KT 14/M08 A3013 RMK A01 T01391077  RH  022%=      5-min Rain = 0
KGU1 240833Z 22009G14KT 14/M08 A3012 RMK A01 T01401077  RH  022%=      5-min Rain = 0
KGU1 240834Z 25012KT 14/M08 A3012 RMK A01 T01391078  RH  021%=      5-min Rain = 0
KGU1 240835Z 26011KT 14/M08 A3012 RMK A01 T01401077  RH  022%=      5-min Rain = 0
KGU1 240836Z 25010KT 14/M08 A3012 RMK A01 T01401077  RH  022%=      5-min Rain = 0
KGU1 240837Z 24007KT 14/M08 A3012 RMK A01 T01391078  RH  022%=      5-min Rain = 0
KGU1 240838Z 24008KT 14/M08 A3012 RMK A01 T01371077  RH  022%=      5-min Rain = 0
KGU1 240839Z 23013KT 14/M08 A3012 RMK A01 T01381077  RH  022%=      5-min Rain = 0
KGU1 240840Z 23009KT 14/M08 A3012 RMK A01 T01401078  RH  021%=      5-min Rain = 0
KGU1 240841Z 24011G17KT 14/M08 A3012 RMK A01 T01411079  RH  021%=      5-min Rain = 0
KGU1 240842Z 25011KT 14/M08 A3012 RMK A01 T01411079  RH  021%=      5-min Rain = 0
KGU1 240843Z 25009KT 14/M08 A3012 RMK A01 T01411078  RH  021%=      5-min Rain = 0
KGU1 240844Z 24011KT 14/M08 A3012 RMK A01 T01401078  RH  021%=      5-min Rain = 0
KGU1 240845Z 25013KT 14/M08 A3012 RMK A01 T01381078  RH  021%=      5-min Rain = 0
KGU1 240846Z 24009KT 14/M08 A3012 RMK A01 T01391078  RH  021%=      5-min Rain = 0
KGU1 240847Z 24011KT 14/M08 A3012 RMK A01 T01401079  RH  021%=      5-min Rain = 0
KGU1 240848Z 25010KT 14/M08 A3012 RMK A01 T01401078  RH  021%=      5-min Rain = 0
KGU1 240849Z 24009KT 14/M08 A3012 RMK A01 T01391079  RH  021%=      5-min Rain = 0
KGU1 240850Z 25011KT 14/M08 A3012 RMK A01 T01391078  RH  021%=      5-min Rain = 0
KGU1 240851Z 23010KT 14/M08 A3012 RMK A01 T01391079  RH  021%=      5-min Rain = 0
KGU1 240852Z 23010KT 14/M08 A3012 RMK A01 T01391078  RH  021%=      5-min Rain = 0
KGU1 240853Z 26010KT 14/M08 A3012 RMK A01 T01371078  RH  022%=      5-min Rain = 0
KGU1 240854Z 25009KT 14/M08 A3012 RMK A01 T01361078  RH  022%=      5-min Rain = 0
KGU1 240855Z 23010KT 14/M08 A3012 RMK A01 T01361079  RH  022%=      5-min Rain = 0
KGU1 240856Z 24007KT 14/M08 A3012 RMK A01 T01371079  RH  021%=      5-min Rain = 0
KGU1 240857Z 24008KT 14/M08 A3012 RMK A01 T01371079  RH  022%=      5-min Rain = 0
KGU1 240858Z 24013KT 14/M08 A3012 RMK A01 T01371079  RH  022%=      5-min Rain = 0
KGU1 240859Z 24011KT 14/M08 A3012 RMK A01 T01381079  RH  021%=      5-min Rain = 0
KGU1 240900Z 25010KT 14/M08 A3012 RMK A01 T01381079  RH  021%=      5-min Rain = 0
KGU1 240901Z 25011KT 14/M08 A3012 RMK A01 T01361079  RH  022%=      5-min Rain = 0
KGU1 240902Z 24013KT 14/M08 A3012 RMK A01 T01371079  RH  021%=      5-min Rain = 0
KGU1 240903Z 25012KT 14/M08 A3012 RMK A01 T01391078  RH  021%=      5-min Rain = 0
KGU1 240904Z 24011KT 14/M08 A3012 RMK A01 T01401079  RH  021%=      5-min Rain = 0
KGU1 240905Z 22010G15KT 14/M08 A3012 RMK A01 T01391079  RH  021%=      5-min Rain = 0
KGU1 240906Z 23012KT 14/M08 A3012 RMK A01 T01391079  RH  021%=      5-min Rain = 0
KGU1 240907Z 24011KT 14/M08 A3012 RMK A01 T01401079  RH  021%=      5-min Rain = 0
KGU1 240908Z 24010KT 14/M08 A3012 RMK A01 T01401080  RH  021%=      5-min Rain = 0
KGU1 240909Z 24009KT 14/M08 A3012 RMK A01 T01381079  RH  021%=      5-min Rain = 0
KGU1 240910Z 24010KT 14/M08 A3012 RMK A01 T01361079  RH  022%=      5-min Rain = 0
KGU1 240911Z 24009KT 14/M08 A3012 RMK A01 T01351079  RH  022%=      5-min Rain = 0
KGU1 240912Z 25010KT 14/M08 A3012 RMK A01 T01351079  RH  022%=      5-min Rain = 0
KGU1 240913Z 26012G17KT 14/M08 A3012 RMK A01 T01351078  RH  022%=      5-min Rain = 0
KGU1 240914Z 25012KT 14/M08 A3012 RMK A01 T01371079  RH  021%=      5-min Rain = 0
KGU1 240915Z 26009G14KT 14/M08 A3012 RMK A01 T01401078  RH  021%=      5-min Rain = 0
KGU1 240916Z 26011KT 14/M08 A3012 RMK A01 T01391077  RH  022%=      5-min Rain = 0
KGU1 240917Z 24011KT 14/M08 A3012 RMK A01 T01391077  RH  022%=      5-min Rain = 0
KGU1 240918Z 24010G15KT 14/M08 A3012 RMK A01 T01371078  RH  022%=      5-min Rain = 0
KGU1 240919Z 26014KT 14/M08 A3011 RMK A01 T01381078  RH  022%=      5-min Rain = 0
KGU1 240920Z 26014KT 14/M08 A3012 RMK A01 T01401078  RH  021%=      5-min Rain = 0
KGU1 240921Z 25013KT 14/M08 A3011 RMK A01 T01411078  RH  021%=      5-min Rain = 0
KGU1 240922Z 26014KT 14/M08 A3012 RMK A01 T01421078  RH  021%=      5-min Rain = 0
KGU1 240923Z 25011G16KT 14/M08 A3011 RMK A01 T01421077  RH  021%=      5-min Rain = 0
KGU1 240924Z 24013KT 14/M08 A3011 RMK A01 T01421078  RH  021%=      5-min Rain = 0
KGU1 240925Z 24016G21KT 14/M08 A3011 RMK A01 T01431078  RH  021%=      5-min Rain = 0
KGU1 240926Z 23013G18KT 14/M08 A3011 RMK A01 T01431078  RH  021%=      5-min Rain = 0
KGU1 240927Z 25013KT 14/M08 A3011 RMK A01 T01431078  RH  021%=      5-min Rain = 0
KGU1 240928Z 25013KT 14/M08 A3011 RMK A01 T01431077  RH  021%=      5-min Rain = 0
KGU1 240929Z 26013KT 14/M08 A3011 RMK A01 T01421078  RH  021%=      5-min Rain = 0
KGU1 240930Z 26015KT 14/M08 A3011 RMK A01 T01431077  RH  021%=      5-min Rain = 0
KGU1 240931Z 25011KT 14/M08 A3012 RMK A01 T01421077  RH  021%=      5-min Rain = 0
KGU1 240932Z 24011KT 14/M08 A3012 RMK A01 T01411078  RH  021%=      5-min Rain = 0
KGU1 240933Z 25013G18KT 14/M08 A3012 RMK A01 T01401078  RH  021%=      5-min Rain = 0
KGU1 240934Z 25013KT 14/M08 A3011 RMK A01 T01411079  RH  021%=      5-min Rain = 0
KGU1 240935Z 25010KT 14/M08 A3012 RMK A01 T01421078  RH  021%=      5-min Rain = 0
KGU1 240936Z 24013KT 14/M08 A3011 RMK A01 T01411079  RH  021%=      5-min Rain = 0
KGU1 240937Z 27013KT 14/M08 A3011 RMK A01 T01411079  RH  021%=      5-min Rain = 0
KGU1 240938Z 26010G15KT 14/M08 A3012 RMK A01 T01421079  RH  021%=      5-min Rain = 0
KGU1 240939Z 26013G19KT 14/M08 A3012 RMK A01 T01411079  RH  021%=      5-min Rain = 0
KGU1 240940Z 25009KT 14/M08 A3012 RMK A01 T01421080  RH  021%=      5-min Rain = 0
KGU1 240941Z 24009KT 14/M08 A3012 RMK A01 T01421079  RH  021%=      5-min Rain = 0
KGU1 240942Z 25009KT 14/M08 A3012 RMK A01 T01391078  RH  021%=      5-min Rain = 0
KGU1 240943Z 24008KT 14/M08 A3012 RMK A01 T01371078  RH  022%=      5-min Rain = 0
KGU1 240944Z 24010KT 14/M08 A3012 RMK A01 T01361078  RH  022%=      5-min Rain = 0
KGU1 240945Z 23008KT 13/M08 A3012 RMK A01 T01341078  RH  022%=      5-min Rain = 0
KGU1 240946Z 23007KT 13/M08 A3012 RMK A01 T01331078  RH  022%=      5-min Rain = 0
KGU1 240947Z 24008KT 13/M08 A3012 RMK A01 T01311078  RH  023%=      5-min Rain = 0
KGU1 240948Z 25008KT 13/M08 A3012 RMK A01 T01301077  RH  023%=      5-min Rain = 0
KGU1 240949Z 24009KT 13/M08 A3012 RMK A01 T01291078  RH  023%=      5-min Rain = 0
KGU1 240950Z 24009KT 13/M08 A3012 RMK A01 T01301078  RH  023%=      5-min Rain = 0
KGU1 240951Z 24009KT 13/M08 A3012 RMK A01 T01301078  RH  023%=      5-min Rain = 0
KGU1 240952Z 25009KT 13/M08 A3012 RMK A01 T01301078  RH  023%=      5-min Rain = 0
KGU1 240953Z 25010KT 13/M08 A3012 RMK A01 T01291078  RH  023%=      5-min Rain = 0
KGU1 240954Z 25010KT 13/M08 A3012 RMK A01 T01301079  RH  023%=      5-min Rain = 0
KGU1 240955Z 26010KT 13/M08 A3012 RMK A01 T01341080  RH  022%=      5-min Rain = 0
KGU1 240956Z 25010KT 14/M08 A3012 RMK A01 T01361079  RH  022%=      5-min Rain = 0
KGU1 240957Z 24009KT 14/M08 A3012 RMK A01 T01361079  RH  022%=      5-min Rain = 0
KGU1 240958Z 25008KT 14/M08 A3012 RMK A01 T01351078  RH  022%=      5-min Rain = 0
KGU1 240959Z 24008KT 13/M08 A3012 RMK A01 T01331078  RH  022%=      5-min Rain = 0
KGU1 241000Z 24009G14KT 13/M08 A3012 RMK A01 T01321078  RH  022%=      5-min Rain = 0
KGU1 241001Z 26010KT 13/M08 A3012 RMK A01 T01311077  RH  023%=      5-min Rain = 0
KGU1 241002Z 26010G15KT 13/M08 A3012 RMK A01 T01311077  RH  023%=      5-min Rain = 0
KGU1 241003Z 25013KT 13/M08 A3012 RMK A01 T01311078  RH  022%=      5-min Rain = 0
KGU1 241004Z 25010KT 13/M08 A3012 RMK A01 T01341078  RH  022%=      5-min Rain = 0
KGU1 241005Z 25011KT 14/M08 A3012 RMK A01 T01351078  RH  022%=      5-min Rain = 0
KGU1 241006Z 26010KT 14/M08 A3012 RMK A01 T01351077  RH  022%=      5-min Rain = 0
KGU1 241007Z 26014KT 13/M08 A3012 RMK A01 T01331077  RH  022%=      5-min Rain = 0
KGU1 241008Z 25016KT 14/M08 A3011 RMK A01 T01351078  RH  022%=      5-min Rain = 0
KGU1 241009Z 25016G21KT 14/M08 A3011 RMK A01 T01381079  RH  021%=      5-min Rain = 0
KGU1 241010Z 27014KT 14/M08 A3012 RMK A01 T01401079  RH  021%=      5-min Rain = 0
KGU1 241011Z 26010KT 14/M08 A3012 RMK A01 T01391077  RH  022%=      5-min Rain = 0
KGU1 241012Z 26012KT 14/M08 A3012 RMK A01 T01361078  RH  022%=      5-min Rain = 0
KGU1 241013Z 25012G17KT 14/M08 A3011 RMK A01 T01361078  RH  022%=      5-min Rain = 0
KGU1 241014Z 26014KT 14/M08 A3011 RMK A01 T01371078  RH  022%=      5-min Rain = 0
KGU1 241015Z 27012KT 14/M08 A3012 RMK A01 T01371077  RH  022%=      5-min Rain = 0
KGU1 241016Z 26012KT 14/M08 A3012 RMK A01 T01351077  RH  022%=      5-min Rain = 0
KGU1 241017Z 26010KT 13/M08 A3011 RMK A01 T01341077  RH  022%=      5-min Rain = 0
KGU1 241018Z 25010KT 13/M08 A3011 RMK A01 T01331077  RH  022%=      5-min Rain = 0
KGU1 241019Z 26014G19KT 13/M08 A3011 RMK A01 T01321077  RH  023%=      5-min Rain = 0
KGU1 241020Z 26015KT 14/M08 A3011 RMK A01 T01351076  RH  022%=      5-min Rain = 0
KGU1 241021Z 25015KT 14/M08 A3011 RMK A01 T01371077  RH  022%=      5-min Rain = 0
KGU1 241022Z 25016G23KT 14/M08 A3011 RMK A01 T01381076  RH  022%=      5-min Rain = 0
KGU1 241023Z 27015KT 14/M08 A3011 RMK A01 T01381077  RH  022%=      5-min Rain = 0
KGU1 241024Z 26011KT 14/M08 A3011 RMK A01 T01381076  RH  022%=      5-min Rain = 0
KGU1 241025Z 26010KT 14/M08 A3011 RMK A01 T01371076  RH  022%=      5-min Rain = 0
KGU1 241026Z 26015G21KT 14/M08 A3011 RMK A01 T01371076  RH  022%=      5-min Rain = 0
KGU1 241027Z 27013G18KT 14/M08 A3011 RMK A01 T01381076  RH  022%=      5-min Rain = 0
KGU1 241028Z 26015G23KT 14/M08 A3011 RMK A01 T01371075  RH  022%=      5-min Rain = 0
KGU1 241029Z 26014G19KT 14/M08 A3011 RMK A01 T01381076  RH  022%=      5-min Rain = 0
KGU1 241030Z 26015KT 14/M08 A3011 RMK A01 T01391076  RH  022%=      5-min Rain = 0
KGU1 241031Z 25015KT 14/M08 A3011 RMK A01 T01391076  RH  022%=      5-min Rain = 0
KGU1 241032Z 25013KT 14/M08 A3012 RMK A01 T01391076  RH  022%=      5-min Rain = 0
KGU1 241033Z 25011KT 14/M08 A3012 RMK A01 T01381076  RH  022%=      5-min Rain = 0
KGU1 241034Z 26011G16KT 14/M08 A3012 RMK A01 T01371076  RH  022%=      5-min Rain = 0
KGU1 241035Z 26015KT 14/M08 A3012 RMK A01 T01361075  RH  022%=      5-min Rain = 0
KGU1 241036Z 25016KT 14/M08 A3012 RMK A01 T01361076  RH  022%=      5-min Rain = 0
KGU1 241037Z 26015KT 14/M08 A3012 RMK A01 T01371076  RH  022%=      5-min Rain = 0
KGU1 241038Z 26014KT 14/M08 A3012 RMK A01 T01371076  RH  022%=      5-min Rain = 0
KGU1 241039Z 26014G21KT 14/M08 A3012 RMK A01 T01361076  RH  022%=      5-min Rain = 0
KGU1 241040Z 26019G24KT 14/M07 A3011 RMK A01 T01371074  RH  022%=      5-min Rain = 0
KGU1 241041Z 26017G22KT 14/M07 A3011 RMK A01 T01401074  RH  022%=      5-min Rain = 0
KGU1 241042Z 25011G16KT 14/M08 A3012 RMK A01 T01401075  RH  022%=      5-min Rain = 0
KGU1 241043Z 26013KT 14/M08 A3012 RMK A01 T01391075  RH  022%=      5-min Rain = 0
KGU1 241044Z 26011KT 14/M08 A3012 RMK A01 T01391075  RH  022%=      5-min Rain = 0
KGU1 241045Z 26014KT 14/M08 A3012 RMK A01 T01371075  RH  022%=      5-min Rain = 0
KGU1 241046Z 26015KT 14/M08 A3012 RMK A01 T01381075  RH  022%=      5-min Rain = 0
KGU1 241047Z 26014G20KT 14/M07 A3012 RMK A01 T01381074  RH  022%=      5-min Rain = 0
KGU1 241048Z 25011G16KT 14/M07 A3012 RMK A01 T01381074  RH  022%=      5-min Rain = 0
KGU1 241049Z 24012G18KT 14/M08 A3012 RMK A01 T01371076  RH  022%=      5-min Rain = 0
KGU1 241050Z 25013KT 14/M08 A3012 RMK A01 T01381075  RH  022%=      5-min Rain = 0
KGU1 241051Z 24012KT 14/M08 A3012 RMK A01 T01391076  RH  022%=      5-min Rain = 0
KGU1 241052Z 25012KT 14/M08 A3012 RMK A01 T01381076  RH  022%=      5-min Rain = 0
KGU1 241053Z 26015KT 14/M07 A3012 RMK A01 T01381074  RH  022%=      5-min Rain = 0
KGU1 241054Z 27015G20KT 14/M07 A3012 RMK A01 T01391072  RH  023%=      5-min Rain = 0
KGU1 241055Z 26013KT 14/M07 A3012 RMK A01 T01391073  RH  022%=      5-min Rain = 0
KGU1 241056Z 27014KT 14/M07 A3012 RMK A01 T01401073  RH  022%=      5-min Rain = 0
KGU1 241057Z 27013G18KT 14/M07 A3012 RMK A01 T01401072  RH  022%=      5-min Rain = 0
KGU1 241058Z 25013KT 14/M07 A3012 RMK A01 T01391073  RH  022%=      5-min Rain = 0
KGU1 241059Z 24015KT 14/M07 A3012 RMK A01 T01391073  RH  022%=      5-min Rain = 0
KGU1 241100Z 25015KT 14/M07 A3012 RMK A01 T01411073  RH  022%=      5-min Rain = 0
KGU1 241101Z 26016KT 14/M07 A3012 RMK A01 T01411073  RH  022%=      5-min Rain = 0
KGU1 241102Z 25012G17KT 14/M07 A3012 RMK A01 T01411072  RH  022%=      5-min Rain = 0
KGU1 241103Z 25012KT 14/M07 A3012 RMK A01 T01411072  RH  022%=      5-min Rain = 0
KGU1 241104Z 25012KT 14/M07 A3012 RMK A01 T01411072  RH  022%=      5-min Rain = 0
KGU1 241105Z 25013KT 14/M07 A3012 RMK A01 T01411071  RH  022%=      5-min Rain = 0
KGU1 241106Z 26017G22KT 14/M07 A3012 RMK A01 T01411071  RH  022%=      5-min Rain = 0
KGU1 241107Z 25017KT 14/M07 A3012 RMK A01 T01411070  RH  022%=      5-min Rain = 0
KGU1 241108Z 25013G18KT 14/M07 A3012 RMK A01 T01431071  RH  022%=      5-min Rain = 0
KGU1 241109Z 26013KT 14/M07 A3012 RMK A01 T01441072  RH  022%=      5-min Rain = 0
KGU1 241110Z 27012KT 14/M07 A3013 RMK A01 T01421071  RH  022%=      5-min Rain = 0
KGU1 241111Z 27014KT 14/M07 A3012 RMK A01 T01411070  RH  023%=      5-min Rain = 0
KGU1 241112Z 25010KT 14/M07 A3012 RMK A01 T01411071  RH  022%=      5-min Rain = 0
KGU1 241113Z 25010KT 14/M07 A3012 RMK A01 T01401071  RH  022%=      5-min Rain = 0
KGU1 241114Z 23006KT 14/M07 A3012 RMK A01 T01401071  RH  022%=      5-min Rain = 0
KGU1 241115Z 26008KT 14/M07 A3012 RMK A01 T01401071  RH  022%=      5-min Rain = 0
KGU1 241116Z 26010KT 14/M07 A3012 RMK A01 T01381071  RH  023%=      5-min Rain = 0
KGU1 241117Z 26012KT 14/M07 A3012 RMK A01 T01391070  RH  023%=      5-min Rain = 0
KGU1 241118Z 27015G21KT 14/M07 A3012 RMK A01 T01391069  RH  023%=      5-min Rain = 0
KGU1 241119Z 26012KT 14/M07 A3012 RMK A01 T01401068  RH  023%=      5-min Rain = 0
KGU1 241120Z 27012KT 14/M07 A3012 RMK A01 T01411068  RH  023%=      5-min Rain = 0
KGU1 241121Z 26015KT 14/M07 A3012 RMK A01 T01401068  RH  023%=      5-min Rain = 0
KGU1 241122Z 25012G18KT 14/M07 A3012 RMK A01 T01401068  RH  023%=      5-min Rain = 0
KGU1 241123Z 26015G20KT 14/M07 A3012 RMK A01 T01411067  RH  023%=      5-min Rain = 0
KGU1 241124Z 27016KT 14/M07 A3012 RMK A01 T01411067  RH  023%=      5-min Rain = 0
KGU1 241125Z 27013KT 14/M07 A3012 RMK A01 T01421067  RH  023%=      5-min Rain = 0
KGU1 241126Z 26013G18KT 14/M07 A3012 RMK A01 T01421067  RH  023%=      5-min Rain = 0
KGU1 241127Z 25013KT 14/M07 A3012 RMK A01 T01411068  RH  023%=      5-min Rain = 0
KGU1 241128Z 26014KT 14/M07 A3012 RMK A01 T01411067  RH  023%=      5-min Rain = 0
KGU1 241129Z 24015KT 14/M07 A3012 RMK A01 T01421068  RH  023%=      5-min Rain = 0
KGU1 241130Z 26012KT 14/M07 A3012 RMK A01 T01431067  RH  023%=      5-min Rain = 0
KGU1 241131Z 26013G18KT 14/M07 A3012 RMK A01 T01431067  RH  023%=      5-min Rain = 0
KGU1 241132Z 25016G21KT 14/M07 A3012 RMK A01 T01421068  RH  023%=      5-min Rain = 0
KGU1 241133Z 25015G21KT 14/M07 A3012 RMK A01 T01421069  RH  023%=      5-min Rain = 0
KGU1 241134Z 25015KT 14/M07 A3012 RMK A01 T01431069  RH  022%=      5-min Rain = 0
KGU1 241135Z 25014KT 14/M07 A3012 RMK A01 T01431069  RH  023%=      5-min Rain = 0
KGU1 241136Z 26009G14KT 14/M07 A3012 RMK A01 T01421067  RH  023%=      5-min Rain = 0
KGU1 241137Z 25010KT 14/M07 A3012 RMK A01 T01411067  RH  023%=      5-min Rain = 0
KGU1 241138Z 25012KT 14/M07 A3012 RMK A01 T01411067  RH  023%=      5-min Rain = 0
KGU1 241139Z 26012G18KT 14/M07 A3012 RMK A01 T01411068  RH  023%=      5-min Rain = 0
KGU1 241140Z 25012KT 14/M07 A3012 RMK A01 T01411068  RH  023%=      5-min Rain = 0
KGU1 241141Z 26010KT 14/M07 A3012 RMK A01 T01401067  RH  023%=      5-min Rain = 0
KGU1 241142Z 26010KT 14/M07 A3013 RMK A01 T01391067  RH  023%=      5-min Rain = 0
KGU1 241143Z 26012G17KT 14/M07 A3013 RMK A01 T01391068  RH  023%=      5-min Rain = 0
KGU1 241144Z 24015G20KT 14/M07 A3012 RMK A01 T01411068  RH  023%=      5-min Rain = 0
KGU1 241145Z 25014KT 14/M07 A3012 RMK A01 T01421068  RH  023%=      5-min Rain = 0
KGU1 241146Z 27012KT 14/M07 A3013 RMK A01 T01421068  RH  023%=      5-min Rain = 0
KGU1 241147Z 26017G22KT 14/M07 A3012 RMK A01 T01411067  RH  023%=      5-min Rain = 0
KGU1 241148Z 25017KT 14/M07 A3012 RMK A01 T01411068  RH  023%=      5-min Rain = 0
KGU1 241149Z 25017G23KT 14/M07 A3012 RMK A01 T01431067  RH  023%=      5-min Rain = 0
KGU1 241150Z 25020G25KT 14/M07 A3012 RMK A01 T01431068  RH  023%=      5-min Rain = 0
KGU1 241151Z 24015KT 14/M07 A3012 RMK A01 T01431068  RH  022%=      5-min Rain = 0
KGU1 241152Z 24013KT 14/M07 A3012 RMK A01 T01431069  RH  023%=      5-min Rain = 0
KGU1 241153Z 26015KT 14/M07 A3012 RMK A01 T01421068  RH  023%=      5-min Rain = 0
KGU1 241154Z 26016KT 14/M07 A3012 RMK A01 T01411068  RH  023%=      5-min Rain = 0
KGU1 241155Z 25014G19KT 14/M07 A3012 RMK A01 T01411068  RH  023%=      5-min Rain = 0
KGU1 241156Z 25014KT 14/M07 A3012 RMK A01 T01411068  RH  023%=      5-min Rain = 0
KGU1 241157Z 24016KT 14/M07 A3012 RMK A01 T01411068  RH  023%=      5-min Rain = 0
KGU1 241158Z 27015KT 14/M07 A3012 RMK A01 T01411067  RH  023%=      5-min Rain = 0
KGU1 241159Z 26015G20KT 14/M07 A3012 RMK A01 T01391067  RH  023%=      5-min Rain = 0
KGU1 241200Z 25013KT 14/M07 A3012 RMK A01 T01391067  RH  023%=      5-min Rain = 0
KGU1 241201Z 25012KT 14/M07 A3012 RMK A01 T01391067  RH  023%=      5-min Rain = 0
KGU1 241202Z 25011G16KT 14/M07 A3012 RMK A01 T01391066  RH  023%=      5-min Rain = 0
KGU1 241203Z 27013KT 14/M07 A3012 RMK A01 T01391066  RH  023%=      5-min Rain = 0
KGU1 241204Z 27010KT 14/M07 A3012 RMK A01 T01381066  RH  024%=      5-min Rain = 0
KGU1 241205Z 27010KT 14/M07 A3012 RMK A01 T01361066  RH  024%=      5-min Rain = 0
KGU1 241206Z 25011KT 14/M07 A3012 RMK A01 T01351066  RH  024%=      5-min Rain = 0
KGU1 241207Z 25014KT 14/M07 A3012 RMK A01 T01361066  RH  024%=      5-min Rain = 0
KGU1 241208Z 25017G22KT 14/M07 A3012 RMK A01 T01371067  RH  024%=      5-min Rain = 0
KGU1 241209Z 26016G22KT 14/M07 A3012 RMK A01 T01391066  RH  024%=      5-min Rain = 0
KGU1 241210Z 26014KT 14/M07 A3012 RMK A01 T01401067  RH  023%=      5-min Rain = 0
KGU1 241211Z 25016G21KT 14/M07 A3012 RMK A01 T01401067  RH  023%=      5-min Rain = 0
KGU1 241212Z 26014KT 14/M07 A3012 RMK A01 T01401068  RH  023%=      5-min Rain = 0
KGU1 241213Z 27014KT 14/M07 A3013 RMK A01 T01391068  RH  023%=      5-min Rain = 0
KGU1 241214Z 27013KT 14/M07 A3013 RMK A01 T01381067  RH  023%=      5-min Rain = 0
KGU1 241215Z 28011KT 14/M07 A3013 RMK A01 T01371067  RH  024%=      5-min Rain = 0
KGU1 241216Z 27012KT 14/M07 A3013 RMK A01 T01361066  RH  024%=      5-min Rain = 0
KGU1 241217Z 27009KT 14/M07 A3013 RMK A01 T01351067  RH  024%=      5-min Rain = 0
KGU1 241218Z 27009KT 13/M07 A3012 RMK A01 T01341066  RH  024%=      5-min Rain = 0
KGU1 241219Z 26013G18KT 13/M07 A3012 RMK A01 T01321066  RH  025%=      5-min Rain = 0
KGU1 241220Z 24018KT 13/M07 A3012 RMK A01 T01341067  RH  024%=      5-min Rain = 0
KGU1 241221Z 25013KT 14/M07 A3012 RMK A01 T01391068  RH  023%=      5-min Rain = 0
KGU1 241222Z 25013G21KT 14/M07 A3012 RMK A01 T01401068  RH  023%=      5-min Rain = 0
KGU1 241223Z 26013KT 14/M07 A3012 RMK A01 T01401067  RH  023%=      5-min Rain = 0
KGU1 241224Z 26009KT 14/M07 A3012 RMK A01 T01391068  RH  023%=      5-min Rain = 0
KGU1 241225Z 27010KT 14/M07 A3012 RMK A01 T01371066  RH  024%=      5-min Rain = 0
KGU1 241226Z 25013G18KT 14/M07 A3012 RMK A01 T01351067  RH  024%=      5-min Rain = 0
KGU1 241227Z 25013KT 14/M07 A3012 RMK A01 T01371068  RH  024%=      5-min Rain = 0
KGU1 241228Z 26012G17KT 14/M07 A3012 RMK A01 T01371067  RH  024%=      5-min Rain = 0
KGU1 241229Z 27012KT 14/M07 A3012 RMK A01 T01361067  RH  024%=      5-min Rain = 0
KGU1 241230Z 28012KT 14/M07 A3012 RMK A01 T01351067  RH  024%=      5-min Rain = 0
KGU1 241231Z 27011KT 13/M07 A3012 RMK A01 T01341067  RH  024%=      5-min Rain = 0
KGU1 241232Z 27012KT 13/M07 A3012 RMK A01 T01341067  RH  024%=      5-min Rain = 0
KGU1 241233Z 27010KT 13/M07 A3012 RMK A01 T01341067  RH  024%=      5-min Rain = 0
KGU1 241234Z 26011G17KT 13/M07 A3012 RMK A01 T01341067  RH  024%=      5-min Rain = 0
KGU1 241235Z 26012KT 14/M07 A3012 RMK A01 T01351068  RH  024%=      5-min Rain = 0
KGU1 241236Z 27009KT 14/M07 A3012 RMK A01 T01361068  RH  024%=      5-min Rain = 0
KGU1 241237Z 27012KT 14/M07 A3012 RMK A01 T01351067  RH  024%=      5-min Rain = 0
KGU1 241238Z 27009KT 14/M07 A3012 RMK A01 T01351068  RH  024%=      5-min Rain = 0
KGU1 241239Z 27010KT 13/M07 A3013 RMK A01 T01331067  RH  024%=      5-min Rain = 0
KGU1 241240Z 28014KT 13/M07 A3012 RMK A01 T01331067  RH  024%=      5-min Rain = 0
KGU1 241241Z 26013G19KT 14/M07 A3012 RMK A01 T01351068  RH  024%=      5-min Rain = 0
KGU1 241242Z 27013KT 14/M07 A3013 RMK A01 T01371068  RH  024%=      5-min Rain = 0
KGU1 241243Z 28011KT 14/M07 A3013 RMK A01 T01371068  RH  024%=      5-min Rain = 0
KGU1 241244Z 27010KT 14/M07 A3012 RMK A01 T01361068  RH  024%=      5-min Rain = 0
KGU1 241245Z 27011KT 14/M07 A3013 RMK A01 T01351067  RH  024%=      5-min Rain = 0
KGU1 241246Z 27011KT 13/M07 A3013 RMK A01 T01341067  RH  024%=      5-min Rain = 0
KGU1 241247Z 27010G15KT 13/M07 A3013 RMK A01 T01331067  RH  024%=      5-min Rain = 0
KGU1 241248Z 28014KT 13/M07 A3013 RMK A01 T01341067  RH  024%=      5-min Rain = 0
KGU1 241249Z 27011KT 14/M07 A3013 RMK A01 T01351067  RH  024%=      5-min Rain = 0
KGU1 241250Z 28014KT 14/M07 A3013 RMK A01 T01351067  RH  024%=      5-min Rain = 0
KGU1 241251Z 28013KT 13/M07 A3013 RMK A01 T01341066  RH  024%=      5-min Rain = 0
KGU1 241252Z 26010KT 13/M07 A3013 RMK A01 T01341067  RH  024%=      5-min Rain = 0
KGU1 241253Z 26011KT 13/M07 A3013 RMK A01 T01331067  RH  024%=      5-min Rain = 0
KGU1 241254Z 27012G18KT 13/M07 A3013 RMK A01 T01341067  RH  024%=      5-min Rain = 0
KGU1 241255Z 27017G24KT 13/M07 A3013 RMK A01 T01341067  RH  024%=      5-min Rain = 0
KGU1 241256Z 27011G17KT 14/M07 A3013 RMK A01 T01361068  RH  024%=      5-min Rain = 0
KGU1 241257Z 28013KT 14/M07 A3013 RMK A01 T01361067  RH  024%=      5-min Rain = 0
KGU1 241258Z 28015KT 14/M07 A3013 RMK A01 T01351068  RH  024%=      5-min Rain = 0
KGU1 241259Z 27012KT 14/M07 A3013 RMK A01 T01361068  RH  024%=      5-min Rain = 0
KGU1 241300Z 28017G22KT 14/M07 A3013 RMK A01 T01361068  RH  024%=      5-min Rain = 0
KGU1 241301Z 28012KT 14/M07 A3013 RMK A01 T01361068  RH  024%=      5-min Rain = 0
KGU1 241302Z 28012KT 14/M07 A3013 RMK A01 T01351068  RH  024%=      5-min Rain = 0
KGU1 241303Z 27010G15KT 14/M07 A3013 RMK A01 T01351068  RH  024%=      5-min Rain = 0
KGU1 241304Z 27013KT 13/M07 A3013 RMK A01 T01341068  RH  024%=      5-min Rain = 0
KGU1 241305Z 28013KT 13/M07 A3013 RMK A01 T01331068  RH  024%=      5-min Rain = 0
KGU1 241306Z 28011KT 13/M07 A3013 RMK A01 T01331067  RH  024%=      5-min Rain = 0
KGU1 241307Z 29016KT 13/M07 A3013 RMK A01 T01321068  RH  024%=      5-min Rain = 0
KGU1 241308Z 28018KT 14/M07 A3013 RMK A01 T01351069  RH  024%=      5-min Rain = 0
KGU1 241309Z 27015G20KT 14/M07 A3013 RMK A01 T01361069  RH  023%=      5-min Rain = 0
KGU1 241310Z 27013G18KT 14/M07 A3013 RMK A01 T01371069  RH  023%=      5-min Rain = 0
KGU1 241311Z 27016KT 14/M07 A3013 RMK A01 T01371069  RH  023%=      5-min Rain = 0
KGU1 241312Z 27022KT 14/M07 A3013 RMK A01 T01371069  RH  023%=      5-min Rain = 0
KGU1 241313Z 27014KT 14/M07 A3013 RMK A01 T01381068  RH  023%=      5-min Rain = 0
KGU1 241314Z 28013KT 14/M07 A3013 RMK A01 T01371068  RH  024%=      5-min Rain = 0
KGU1 241315Z 28013KT 14/M07 A3013 RMK A01 T01371068  RH  024%=      5-min Rain = 0
KGU1 241316Z 27017KT 14/M07 A3013 RMK A01 T01371068  RH  023%=      5-min Rain = 0
KGU1 241317Z 27017G25KT 14/M07 A3013 RMK A01 T01381069  RH  023%=      5-min Rain = 0
KGU1 241318Z 28019G25KT 14/M07 A3013 RMK A01 T01391069  RH  023%=      5-min Rain = 0
KGU1 241319Z 27017KT 14/M07 A3013 RMK A01 T01401069  RH  023%=      5-min Rain = 0
KGU1 241320Z 27016G21KT 14/M07 A3013 RMK A01 T01401069  RH  023%=      5-min Rain = 0
KGU1 241321Z 28017KT 14/M07 A3013 RMK A01 T01401068  RH  023%=      5-min Rain = 0
KGU1 241322Z 29020KT 14/M07 A3013 RMK A01 T01401069  RH  023%=      5-min Rain = 0
KGU1 241323Z 29018KT 14/M07 A3013 RMK A01 T01411069  RH  023%=      5-min Rain = 0
KGU1 241324Z 27014G19KT 14/M07 A3013 RMK A01 T01411068  RH  023%=      5-min Rain = 0
KGU1 241325Z 28016KT 14/M07 A3013 RMK A01 T01411068  RH  023%=      5-min Rain = 0
KGU1 241326Z 28016KT 14/M07 A3013 RMK A01 T01411069  RH  023%=      5-min Rain = 0
KGU1 241327Z 28017KT 14/M07 A3013 RMK A01 T01421069  RH  023%=      5-min Rain = 0
KGU1 241328Z 27016G23KT 14/M07 A3013 RMK A01 T01421069  RH  023%=      5-min Rain = 0
KGU1 241329Z 28014G19KT 14/M07 A3013 RMK A01 T01421068  RH  023%=      5-min Rain = 0
KGU1 241330Z 28016KT 14/M07 A3013 RMK A01 T01411068  RH  023%=      5-min Rain = 0
KGU1 241331Z 27014G19KT 14/M07 A3013 RMK A01 T01411068  RH  023%=      5-min Rain = 0
KGU1 241332Z 27015G23KT 14/M07 A3013 RMK A01 T01421068  RH  023%=      5-min Rain = 0
KGU1 241333Z 27014KT 14/M07 A3013 RMK A01 T01421068  RH  023%=      5-min Rain = 0
KGU1 241334Z 27016KT 14/M07 A3013 RMK A01 T01421068  RH  023%=      5-min Rain = 0
KGU1 241335Z 28016G21KT 14/M07 A3013 RMK A01 T01431069  RH  023%=      5-min Rain = 0
KGU1 241336Z 27017KT 14/M07 A3013 RMK A01 T01431069  RH  022%=      5-min Rain = 0
KGU1 241337Z 27015KT 14/M07 A3013 RMK A01 T01441069  RH  022%=      5-min Rain = 0
KGU1 241338Z 26013KT 14/M07 A3013 RMK A01 T01441069  RH  022%=      5-min Rain = 0
KGU1 241339Z 28015KT 14/M07 A3013 RMK A01 T01441068  RH  022%=      5-min Rain = 0
KGU1 241340Z 28014G23KT 14/M07 A3013 RMK A01 T01441069  RH  022%=      5-min Rain = 0
KGU1 241341Z 28018KT 15/M07 A3014 RMK A01 T01451069  RH  022%=      5-min Rain = 0
KGU1 241342Z 27016KT 15/M07 A3013 RMK A01 T01451068  RH  022%=      5-min Rain = 0
KGU1 241343Z 27016KT 15/M07 A3013 RMK A01 T01461068  RH  022%=      5-min Rain = 0
KGU1 241344Z 27020G25KT 15/M07 A3014 RMK A01 T01461068  RH  022%=      5-min Rain = 0
KGU1 241345Z 28017G22KT 15/M07 A3014 RMK A01 T01451068  RH  022%=      5-min Rain = 0
KGU1 241346Z 28017G22KT 15/M07 A3013 RMK A01 T01461067  RH  022%=      5-min Rain = 0
KGU1 241347Z 29016KT 15/M07 A3013 RMK A01 T01471066  RH  022%=      5-min Rain = 0
KGU1 241348Z 30014G19KT 15/M07 A3013 RMK A01 T01471066  RH  022%=      5-min Rain = 0
KGU1 241349Z 27013KT 15/M07 A3014 RMK A01 T01471066  RH  022%=      5-min Rain = 0
KGU1 241350Z 27013KT 15/M07 A3014 RMK A01 T01481066  RH  022%=      5-min Rain = 0
KGU1 241351Z 28015KT 15/M07 A3014 RMK A01 T01481066  RH  022%=      5-min Rain = 0
KGU1 241352Z 28015KT 15/M07 A3013 RMK A01 T01481068  RH  022%=      5-min Rain = 0
KGU1 241353Z 28019G28KT 15/M07 A3014 RMK A01 T01481068  RH  022%=      5-min Rain = 0
KGU1 241354Z 29022G27KT 15/M07 A3014 RMK A01 T01471066  RH  022%=      5-min Rain = 0
KGU1 241355Z 26014G22KT 15/M07 A3014 RMK A01 T01471068  RH  022%=      5-min Rain = 0
KGU1 241356Z 28021G29KT 15/M07 A3014 RMK A01 T01461068  RH  022%=      5-min Rain = 0
KGU1 241357Z 29018G27KT 15/M07 A3014 RMK A01 T01461067  RH  022%=      5-min Rain = 0
KGU1 241358Z 27017G25KT 15/M07 A3014 RMK A01 T01461066  RH  022%=      5-min Rain = 0
KGU1 241359Z 27020G25KT 15/M07 A3014 RMK A01 T01471067  RH  022%=      5-min Rain = 0
KGU1 241400Z 29014KT 15/M07 A3014 RMK A01 T01481066  RH  022%=      5-min Rain = 0
KGU1 241401Z 28020KT 15/M07 A3014 RMK A01 T01491065  RH  022%=      5-min Rain = 0
KGU1 241402Z 28015KT 15/M07 A3014 RMK A01 T01491066  RH  022%=      5-min Rain = 0
KGU1 241403Z 28016KT 15/M07 A3014 RMK A01 T01491065  RH  022%=      5-min Rain = 0
KGU1 241404Z 28013G18KT 15/M06 A3014 RMK A01 T01491064  RH  022%=      5-min Rain = 0
KGU1 241405Z 27013KT 15/M07 A3014 RMK A01 T01491065  RH  022%=      5-min Rain = 0
KGU1 241406Z 26011KT 15/M07 A3014 RMK A01 T01481066  RH  022%=      5-min Rain = 0
KGU1 241407Z 28014G19KT 15/M07 A3014 RMK A01 T01481065  RH  022%=      5-min Rain = 0
KGU1 241408Z 28017G22KT 15/M07 A3015 RMK A01 T01471066  RH  022%=      5-min Rain = 0
KGU1 241409Z 27012KT 15/M07 A3015 RMK A01 T01471065  RH  023%=      5-min Rain = 0
KGU1 241410Z 29017KT 15/M07 A3015 RMK A01 T01471065  RH  023%=      5-min Rain = 0
KGU1 241411Z 28016KT 15/M06 A3015 RMK A01 T01481063  RH  023%=      5-min Rain = 0
KGU1 241412Z 27017KT 15/M06 A3015 RMK A01 T01491064  RH  022%=      5-min Rain = 0
KGU1 241413Z 27020G25KT 15/M07 A3015 RMK A01 T01491065  RH  022%=      5-min Rain = 0
KGU1 241414Z 27014KT 15/M07 A3014 RMK A01 T01501066  RH  022%=      5-min Rain = 0
KGU1 241415Z 28016G21KT 15/M07 A3015 RMK A01 T01491066  RH  022%=      5-min Rain = 0
KGU1 241416Z 29015G22KT 15/M07 A3015 RMK A01 T01481066  RH  022%=      5-min Rain = 0
KGU1 241417Z 28014KT 15/M07 A3015 RMK A01 T01471065  RH  023%=      5-min Rain = 0
KGU1 241418Z 28014KT 15/M07 A3015 RMK A01 T01471065  RH  023%=      5-min Rain = 0
KGU1 241419Z 28016KT 15/M07 A3015 RMK A01 T01461065  RH  023%=      5-min Rain = 0
KGU1 241420Z 26013KT 15/M07 A3015 RMK A01 T01471066  RH  022%=      5-min Rain = 0
KGU1 241421Z 26012KT 15/M07 A3015 RMK A01 T01471066  RH  022%=      5-min Rain = 0
KGU1 241422Z 28017KT 15/M07 A3015 RMK A01 T01461067  RH  022%=      5-min Rain = 0
KGU1 241423Z 28013KT 15/M07 A3015 RMK A01 T01461067  RH  022%=      5-min Rain = 0
KGU1 241424Z 28012KT 15/M07 A3015 RMK A01 T01461067  RH  022%=      5-min Rain = 0
KGU1 241425Z 28012KT 15/M07 A3015 RMK A01 T01471066  RH  022%=      5-min Rain = 0
KGU1 241426Z 28014G23KT 15/M07 A3015 RMK A01 T01481065  RH  022%=      5-min Rain = 0
KGU1 241427Z 28015G21KT 15/M07 A3015 RMK A01 T01481067  RH  022%=      5-min Rain = 0
KGU1 241428Z 29015KT 15/M07 A3015 RMK A01 T01481067  RH  022%=      5-min Rain = 0
KGU1 241429Z 28014G19KT 15/M07 A3015 RMK A01 T01481067  RH  022%=      5-min Rain = 0
KGU1 241430Z 28018G26KT 15/M07 A3015 RMK A01 T01481067  RH  022%=      5-min Rain = 0
KGU1 241431Z 27022G28KT 15/M07 A3015 RMK A01 T01481068  RH  022%=      5-min Rain = 0
KGU1 241432Z 27014G19KT 15/M07 A3016 RMK A01 T01481067  RH  022%=      5-min Rain = 0
KGU1 241433Z 27014G20KT 15/M07 A3015 RMK A01 T01481068  RH  022%=      5-min Rain = 0
KGU1 241434Z 29016G22KT 15/M07 A3016 RMK A01 T01491068  RH  022%=      5-min Rain = 0
KGU1 241435Z 28013G18KT 15/M07 A3016 RMK A01 T01501066  RH  022%=      5-min Rain = 0
KGU1 241436Z 27015G24KT 15/M07 A3015 RMK A01 T01511065  RH  022%=      5-min Rain = 0
KGU1 241437Z 27016G22KT 15/M07 A3015 RMK A01 T01521066  RH  022%=      5-min Rain = 0
KGU1 241438Z 29016KT 15/M07 A3016 RMK A01 T01521066  RH  022%=      5-min Rain = 0
KGU1 241439Z 28014KT 15/M07 A3016 RMK A01 T01511066  RH  022%=      5-min Rain = 0
KGU1 241440Z 28016G21KT 15/M07 A3016 RMK A01 T01511066  RH  022%=      5-min Rain = 0
KGU1 241441Z 27016KT 15/M07 A3016 RMK A01 T01511065  RH  022%=      5-min Rain = 0
KGU1 241442Z 27019G24KT 15/M07 A3015 RMK A01 T01501066  RH  022%=      5-min Rain = 0
KGU1 241443Z 27021KT 15/M07 A3016 RMK A01 T01491067  RH  022%=      5-min Rain = 0
KGU1 241444Z 29016G21KT 15/M07 A3016 RMK A01 T01481067  RH  022%=      5-min Rain = 0
KGU1 241445Z 28018KT 15/M07 A3016 RMK A01 T01481066  RH  022%=      5-min Rain = 0
KGU1 241446Z 29016G23KT 15/M07 A3016 RMK A01 T01481067  RH  022%=      5-min Rain = 0
KGU1 241447Z 27017KT 15/M07 A3016 RMK A01 T01481066  RH  022%=      5-min Rain = 0
KGU1 241448Z 28017KT 15/M07 A3016 RMK A01 T01481066  RH  022%=      5-min Rain = 0
KGU1 241449Z 28018KT 15/M07 A3016 RMK A01 T01481065  RH  022%=      5-min Rain = 0
KGU1 241450Z 27014KT 15/M07 A3016 RMK A01 T01481065  RH  022%=      5-min Rain = 0
KGU1 241451Z 25013G18KT 15/M07 A3016 RMK A01 T01491067  RH  022%=      5-min Rain = 0
KGU1 241452Z 28014KT 15/M07 A3016 RMK A01 T01501065  RH  022%=      5-min Rain = 0
KGU1 241453Z 27016KT 15/M06 A3016 RMK A01 T01511064  RH  022%=      5-min Rain = 0
KGU1 241454Z 26013KT 15/M07 A3016 RMK A01 T01521066  RH  022%=      5-min Rain = 0
KGU1 241455Z 27015G21KT 15/M07 A3016 RMK A01 T01511067  RH  022%=      5-min Rain = 0
KGU1 241456Z 27015KT 15/M07 A3016 RMK A01 T01521066  RH  022%=      5-min Rain = 0
KGU1 241457Z 28017KT 15/M07 A3016 RMK A01 T01531066  RH  021%=      5-min Rain = 0
KGU1 241458Z 28016KT 15/M07 A3016 RMK A01 T01541065  RH  021%=      5-min Rain = 0
KGU1 241459Z 27017G23KT 16/M07 A3016 RMK A01 T01551066  RH  021%=      5-min Rain = 0
KGU1 241500Z 27016KT 16/M07 A3016 RMK A01 T01561065  RH  021%=      5-min Rain = 0
KGU1 241501Z 28017KT 16/M07 A3017 RMK A01 T01561067  RH  021%=      5-min Rain = 0
KGU1 241502Z 29016KT 16/M07 A3017 RMK A01 T01561066  RH  021%=      5-min Rain = 0
KGU1 241503Z 28014G20KT 16/M07 A3016 RMK A01 T01571067  RH  021%=      5-min Rain = 0
KGU1 241504Z 26017KT 16/M07 A3016 RMK A01 T01571066  RH  021%=      5-min Rain = 0
KGU1 241505Z 28017KT 16/M07 A3016 RMK A01 T01571066  RH  021%=      5-min Rain = 0
KGU1 241506Z 29014KT 16/M07 A3017 RMK A01 T01571067  RH  021%=      5-min Rain = 0
KGU1 241507Z 29013KT 16/M07 A3017 RMK A01 T01571065  RH  021%=      5-min Rain = 0
KGU1 241508Z 29012G17KT 16/M07 A3017 RMK A01 T01581066  RH  021%=      5-min Rain = 0
KGU1 241509Z 29013KT 16/M07 A3017 RMK A01 T01581065  RH  021%=      5-min Rain = 0
KGU1 241510Z 28018KT 16/M06 A3017 RMK A01 T01591064  RH  021%=      5-min Rain = 0
KGU1 241511Z 28017G24KT 16/M07 A3017 RMK A01 T01581066  RH  021%=      5-min Rain = 0
KGU1 241512Z 27018KT 16/M07 A3017 RMK A01 T01561067  RH  021%=      5-min Rain = 0
KGU1 241513Z 28016G21KT 16/M07 A3017 RMK A01 T01551067  RH  021%=      5-min Rain = 0
KGU1 241514Z 29012KT 16/M07 A3017 RMK A01 T01551067  RH  021%=      5-min Rain = 0
KGU1 241515Z 27013KT 16/M06 A3017 RMK A01 T01571064  RH  021%=      5-min Rain = 0
KGU1 241516Z 27015G20KT 16/M06 A3017 RMK A01 T01581064  RH  021%=      5-min Rain = 0
KGU1 241517Z 28013G18KT 16/M06 A3017 RMK A01 T01591064  RH  021%=      5-min Rain = 0
KGU1 241518Z 27010KT 16/M06 A3017 RMK A01 T01591064  RH  021%=      5-min Rain = 0
KGU1 241519Z 26014G20KT 16/M06 A3017 RMK A01 T01611063  RH  021%=      5-min Rain = 0
KGU1 241520Z 28012G17KT 16/M06 A3017 RMK A01 T01611063  RH  021%=      5-min Rain = 0
KGU1 241521Z 27011G16KT 16/M06 A3017 RMK A01 T01621062  RH  021%=      5-min Rain = 0
KGU1 241522Z 27014G21KT 16/M06 A3017 RMK A01 T01631064  RH  020%=      5-min Rain = 0
KGU1 241523Z 27018G23KT 16/M06 A3017 RMK A01 T01621064  RH  021%=      5-min Rain = 0
KGU1 241524Z 27015KT 16/M06 A3017 RMK A01 T01621064  RH  021%=      5-min Rain = 0
KGU1 241525Z 27015G21KT 16/M06 A3017 RMK A01 T01621064  RH  021%=      5-min Rain = 0
KGU1 241526Z 27018KT 16/M06 A3017 RMK A01 T01621064  RH  021%=      5-min Rain = 0
KGU1 241527Z 27018G23KT 16/M06 A3017 RMK A01 T01621064  RH  021%=      5-min Rain = 0
KGU1 241528Z 28017G23KT 16/M06 A3017 RMK A01 T01611064  RH  021%=      5-min Rain = 0
KGU1 241529Z 27013KT 16/M06 A3017 RMK A01 T01621063  RH  021%=      5-min Rain = 0
KGU1 241530Z 27015KT 17/M06 A3017 RMK A01 T01651061  RH  021%=      5-min Rain = 0
KGU1 241531Z 27018G25KT 17/M06 A3017 RMK A01 T01651064  RH  020%=      5-min Rain = 0
KGU1 241532Z 26016G23KT 16/M07 A3017 RMK A01 T01621066  RH  020%=      5-min Rain = 0
KGU1 241533Z 27015KT 16/M06 A3017 RMK A01 T01601064  RH  021%=      5-min Rain = 0
KGU1 241534Z 27013KT 16/M06 A3017 RMK A01 T01621061  RH  021%=      5-min Rain = 0
KGU1 241535Z 28017KT 17/M06 A3017 RMK A01 T01661061  RH  021%=      5-min Rain = 0
KGU1 241536Z 29016G21KT 17/M06 A3017 RMK A01 T01651062  RH  020%=      5-min Rain = 0
KGU1 241537Z 28018KT 17/M06 A3017 RMK A01 T01661063  RH  020%=      5-min Rain = 0
KGU1 241538Z 29022KT 16/M07 A3018 RMK A01 T01641065  RH  020%=      5-min Rain = 0
KGU1 241539Z 28016G27KT 16/M06 A3017 RMK A01 T01611064  RH  021%=      5-min Rain = 0
KGU1 241540Z 29017G24KT 16/M06 A3017 RMK A01 T01631062  RH  021%=      5-min Rain = 0
KGU1 241541Z 28018G31KT 16/M06 A3017 RMK A01 T01641062  RH  021%=      5-min Rain = 0
KGU1 241542Z 26023G31KT 16/M06 A3016 RMK A01 T01641063  RH  021%=      5-min Rain = 0
KGU1 241543Z 27013KT 16/M06 A3017 RMK A01 T01621062  RH  021%=      5-min Rain = 0
KGU1 241544Z 27018G25KT 16/M06 A3017 RMK A01 T01641061  RH  021%=      5-min Rain = 0
KGU1 241545Z 27017G23KT 16/M06 A3017 RMK A01 T01641064  RH  020%=      5-min Rain = 0
KGU1 241546Z 28015KT 16/M06 A3017 RMK A01 T01641062  RH  021%=      5-min Rain = 0
KGU1 241547Z 28014G19KT 17/M06 A3017 RMK A01 T01661059  RH  021%=      5-min Rain = 0
KGU1 241548Z 27021G27KT 17/M06 A3017 RMK A01 T01671061  RH  020%=      5-min Rain = 0
KGU1 241549Z 27020G25KT 16/M06 A3017 RMK A01 T01641063  RH  020%=      5-min Rain = 0
KGU1 241550Z 27015KT 16/M06 A3017 RMK A01 T01641062  RH  021%=      5-min Rain = 0
KGU1 241551Z 27018G28KT 16/M06 A3017 RMK A01 T01641061  RH  021%=      5-min Rain = 0
KGU1 241552Z 27018G25KT 16/M06 A3017 RMK A01 T01621063  RH  021%=      5-min Rain = 0
KGU1 241553Z 27015KT 16/M06 A3017 RMK A01 T01601063  RH  021%=      5-min Rain = 0
KGU1 241554Z 27015KT 16/M06 A3017 RMK A01 T01611061  RH  021%=      5-min Rain = 0
KGU1 241555Z 27016KT 16/M06 A3017 RMK A01 T01631061  RH  021%=      5-min Rain = 0
KGU1 241556Z 28016G21KT 16/M06 A3017 RMK A01 T01631061  RH  021%=      5-min Rain = 0
KGU1 241557Z 26016G21KT 16/M06 A3017 RMK A01 T01641061  RH  021%=      5-min Rain = 0
KGU1 241558Z 26019G27KT 16/M06 A3017 RMK A01 T01641062  RH  021%=      5-min Rain = 0
KGU1 241559Z 27021G27KT 16/M06 A3017 RMK A01 T01641062  RH  021%=      5-min Rain = 0
KGU1 241600Z 28019G26KT 16/M06 A3017 RMK A01 T01631062  RH  021%=      5-min Rain = 0
KGU1 241601Z 28020G27KT 16/M06 A3017 RMK A01 T01611062  RH  021%=      5-min Rain = 0
KGU1 241602Z 27014KT 16/M06 A3017 RMK A01 T01611061  RH  021%=      5-min Rain = 0
KGU1 241603Z 27015G21KT 16/M06 A3017 RMK A01 T01631060  RH  021%=      5-min Rain = 0
KGU1 241604Z 26018KT 16/M06 A3017 RMK A01 T01641061  RH  021%=      5-min Rain = 0
KGU1 241605Z 28016G24KT 16/M06 A3017 RMK A01 T01641061  RH  021%=      5-min Rain = 0
KGU1 241606Z 28020G25KT 16/M06 A3017 RMK A01 T01631062  RH  021%=      5-min Rain = 0
KGU1 241607Z 28021KT 16/M06 A3017 RMK A01 T01611062  RH  021%=      5-min Rain = 0
KGU1 241608Z 27020G26KT 16/M06 A3017 RMK A01 T01621061  RH  021%=      5-min Rain = 0
KGU1 241609Z 27017KT 16/M06 A3017 RMK A01 T01621060  RH  021%=      5-min Rain = 0
KGU1 241610Z 28016KT 16/M06 A3017 RMK A01 T01641059  RH  021%=      5-min Rain = 0
KGU1 241611Z 28016KT 17/M06 A3017 RMK A01 T01671061  RH  021%=      5-min Rain = 0
KGU1 241612Z 29015G21KT 17/M06 A3017 RMK A01 T01681059  RH  021%=      5-min Rain = 0
KGU1 241613Z 26016G22KT 17/M06 A3017 RMK A01 T01691060  RH  020%=      5-min Rain = 0
KGU1 241614Z 27016G23KT 17/M06 A3017 RMK A01 T01671063  RH  020%=      5-min Rain = 0
KGU1 241615Z 28020KT 17/M06 A3017 RMK A01 T01661062  RH  020%=      5-min Rain = 0
KGU1 241616Z 28015KT 17/M06 A3017 RMK A01 T01661061  RH  021%=      5-min Rain = 0
KGU1 241617Z 28014G19KT 17/M06 A3017 RMK A01 T01681057  RH  021%=      5-min Rain = 0
KGU1 241618Z 28015KT 17/M06 A3017 RMK A01 T01701059  RH  020%=      5-min Rain = 0
KGU1 241619Z 28015KT 17/M06 A3017 RMK A01 T01701059  RH  020%=      5-min Rain = 0
KGU1 241620Z 28012KT 17/M06 A3017 RMK A01 T01711057  RH  020%=      5-min Rain = 0
KGU1 241621Z 28011KT 17/M06 A3017 RMK A01 T01731056  RH  020%=      5-min Rain = 0
KGU1 241622Z 27008G13KT 18/M06 A3017 RMK A01 T01751056  RH  020%=      5-min Rain = 0
KGU1 241623Z 28014G20KT 18/M06 A3017 RMK A01 T01781056  RH  020%=      5-min Rain = 0
KGU1 241624Z 28019G25KT 18/M06 A3017 RMK A01 T01761061  RH  019%=      5-min Rain = 0
KGU1 241625Z 27018G24KT 17/M07 A3017 RMK A01 T01721065  RH  019%=      5-min Rain = 0
KGU1 241626Z 29019KT 17/M07 A3017 RMK A01 T01701066  RH  019%=      5-min Rain = 0
KGU1 241627Z 28017KT 17/M07 A3017 RMK A01 T01681066  RH  020%=      5-min Rain = 0
KGU1 241628Z 28019G24KT 17/M06 A3017 RMK A01 T01681064  RH  020%=      5-min Rain = 0
KGU1 241629Z 27019G25KT 17/M07 A3017 RMK A01 T01681067  RH  019%=      5-min Rain = 0
KGU1 241630Z 28018G24KT 17/M07 A3017 RMK A01 T01681066  RH  019%=      5-min Rain = 0
KGU1 241631Z 28018G23KT 17/M07 A3017 RMK A01 T01711065  RH  019%=      5-min Rain = 0
KGU1 241632Z 28017KT 17/M07 A3017 RMK A01 T01711067  RH  019%=      5-min Rain = 0
KGU1 241633Z 28018KT 17/M07 A3017 RMK A01 T01691066  RH  019%=      5-min Rain = 0
KGU1 241634Z 28014G19KT 17/M07 A3017 RMK A01 T01721065  RH  019%=      5-min Rain = 0
KGU1 241635Z 28020KT 17/M07 A3018 RMK A01 T01731066  RH  019%=      5-min Rain = 0
KGU1 241636Z 27019G26KT 17/M07 A3017 RMK A01 T01721066  RH  019%=      5-min Rain = 0
KGU1 241637Z 28017G23KT 17/M06 A3017 RMK A01 T01711064  RH  019%=      5-min Rain = 0
KGU1 241638Z 29015KT 17/M06 A3017 RMK A01 T01711062  RH  020%=      5-min Rain = 0
KGU1 241639Z 28016KT 17/M07 A3017 RMK A01 T01731065  RH  019%=      5-min Rain = 0
KGU1 241640Z 30014KT 17/M06 A3017 RMK A01 T01731062  RH  019%=      5-min Rain = 0
KGU1 241641Z 29013KT 18/M06 A3017 RMK A01 T01751058  RH  020%=      5-min Rain = 0
KGU1 241642Z 29015G22KT 18/M06 A3017 RMK A01 T01781063  RH  019%=      5-min Rain = 0
KGU1 241643Z 27016KT 18/M07 A3017 RMK A01 T01761065  RH  019%=      5-min Rain = 0
KGU1 241644Z 29011KT 18/M06 A3017 RMK A01 T01781062  RH  019%=      5-min Rain = 0
KGU1 241645Z 28016G22KT 18/M06 A3017 RMK A01 T01811064  RH  018%=      5-min Rain = 0
KGU1 241646Z 28018G24KT 18/M07 A3017 RMK A01 T01771070  RH  018%=      5-min Rain = 0
KGU1 241647Z 28020G25KT 18/M07 A3017 RMK A01 T01751068  RH  018%=      5-min Rain = 0
KGU1 241648Z 28016KT 17/M07 A3017 RMK A01 T01741065  RH  019%=      5-min Rain = 0
KGU1 241649Z 30016G22KT 18/M06 A3017 RMK A01 T01771062  RH  019%=      5-min Rain = 0
KGU1 241650Z 29019G26KT 18/M07 A3017 RMK A01 T01771065  RH  019%=      5-min Rain = 0
KGU1 241651Z 26020G25KT 17/M07 A3017 RMK A01 T01741070  RH  018%=      5-min Rain = 0
KGU1 241652Z 27017G23KT 17/M07 A3017 RMK A01 T01711067  RH  019%=      5-min Rain = 0
KGU1 241653Z 28018KT 17/M07 A3017 RMK A01 T01731066  RH  019%=      5-min Rain = 0
KGU1 241654Z 27018KT 17/M07 A3017 RMK A01 T01721066  RH  019%=      5-min Rain = 0
KGU1 241655Z 27016KT 17/M07 A3017 RMK A01 T01721066  RH  019%=      5-min Rain = 0
KGU1 241656Z 28016G22KT 17/M06 A3018 RMK A01 T01731063  RH  019%=      5-min Rain = 0
KGU1 241657Z 30015KT 17/M06 A3018 RMK A01 T01741063  RH  019%=      5-min Rain = 0
KGU1 241658Z 29011G17KT 17/M06 A3018 RMK A01 T01741062  RH  019%=      5-min Rain = 0
KGU1 241659Z 29017G23KT 18/M06 A3018 RMK A01 T01801057  RH  019%=      5-min Rain = 0
KGU1 241700Z 29021KT 18/M06 A3018 RMK A01 T01781063  RH  019%=      5-min Rain = 0
KGU1 241701Z 27018G24KT 17/M07 A3018 RMK A01 T01741065  RH  019%=      5-min Rain = 0
KGU1 241702Z 28017G22KT 17/M06 A3018 RMK A01 T01731064  RH  019%=      5-min Rain = 0
KGU1 241703Z 28018G23KT 17/M06 A3018 RMK A01 T01741063  RH  019%=      5-min Rain = 0
KGU1 241704Z 27013KT 17/M06 A3018 RMK A01 T01741062  RH  020%=      5-min Rain = 0
KGU1 241705Z 27015KT 17/M06 A3018 RMK A01 T01741060  RH  020%=      5-min Rain = 0
KGU1 241706Z 28012G17KT 18/M06 A3018 RMK A01 T01761058  RH  020%=      5-min Rain = 0
KGU1 241707Z 29016KT 17/M06 A3018 RMK A01 T01741060  RH  020%=      5-min Rain = 0
KGU1 241708Z 28011KT 18/M06 A3018 RMK A01 T01751056  RH  020%=      5-min Rain = 0
KGU1 241709Z 29016KT 18/M06 A3018 RMK A01 T01771058  RH  020%=      5-min Rain = 0
KGU1 241710Z 29016KT 18/M06 A3018 RMK A01 T01751059  RH  020%=      5-min Rain = 0
KGU1 241711Z 29018G25KT 17/M06 A3018 RMK A01 T01731058  RH  020%=      5-min Rain = 0
KGU1 241712Z 28018KT 17/M06 A3019 RMK A01 T01731058  RH  020%=      5-min Rain = 0
KGU1 241713Z 28014G19KT 17/M06 A3019 RMK A01 T01741059  RH  020%=      5-min Rain = 0
KGU1 241714Z 27015KT 18/M06 A3018 RMK A01 T01751058  RH  020%=      5-min Rain = 0
KGU1 241715Z 28014G21KT 17/M06 A3019 RMK A01 T01741059  RH  020%=      5-min Rain = 0
KGU1 241716Z 26011G16KT 18/M06 A3018 RMK A01 T01761058  RH  020%=      5-min Rain = 0
KGU1 241717Z 29017G23KT 18/M06 A3019 RMK A01 T01771059  RH  019%=      5-min Rain = 0
KGU1 241718Z 30015KT 17/M06 A3019 RMK A01 T01721061  RH  020%=      5-min Rain = 0
KGU1 241719Z 29015KT 17/M06 A3019 RMK A01 T01701058  RH  021%=      5-min Rain = 0
KGU1 241720Z 28016G24KT 17/M06 A3018 RMK A01 T01731055  RH  021%=      5-min Rain = 0
KGU1 241721Z 28014G19KT 18/M06 A3019 RMK A01 T01751056  RH  020%=      5-min Rain = 0
KGU1 241722Z 29015KT 18/M06 A3019 RMK A01 T01761058  RH  020%=      5-min Rain = 0
KGU1 241723Z 27012G18KT 18/M06 A3019 RMK A01 T01781055  RH  020%=      5-min Rain = 0
KGU1 241724Z 28017G23KT 18/M06 A3019 RMK A01 T01791058  RH  019%=      5-min Rain = 0
KGU1 241725Z 29017G22KT 18/M06 A3019 RMK A01 T01791055  RH  020%=      5-min Rain = 0
KGU1 241726Z 28015KT 18/M06 A3019 RMK A01 T01781058  RH  020%=      5-min Rain = 0
KGU1 241727Z 28012G17KT 18/M06 A3019 RMK A01 T01761056  RH  020%=      5-min Rain = 0
KGU1 241728Z 24011G18KT 18/M06 A3019 RMK A01 T01801056  RH  020%=      5-min Rain = 0
KGU1 241729Z 26014KT 18/M06 A3019 RMK A01 T01751063  RH  019%=      5-min Rain = 0
KGU1 241730Z 26016G21KT 17/M06 A3019 RMK A01 T01741060  RH  020%=      5-min Rain = 0
KGU1 241731Z 27011G16KT 17/M06 A3019 RMK A01 T01741060  RH  020%=      5-min Rain = 0
KGU1 241732Z 30017G22KT 18/M06 A302 RMK A01 T01761057  RH  020%=      5-min Rain = 0
KGU1 241733Z 27012KT 18/M06 A3019 RMK A01 T01761057  RH  020%=      5-min Rain = 0
KGU1 241734Z 27016KT 18/M06 A3019 RMK A01 T01791057  RH  020%=      5-min Rain = 0
KGU1 241735Z 27013KT 18/M06 A3019 RMK A01 T01791057  RH  020%=      5-min Rain = 0
KGU1 241736Z 27012KT 18/M06 A3019 RMK A01 T01791057  RH  020%=      5-min Rain = 0
KGU1 241737Z 30015KT 18/M05 A302 RMK A01 T01811054  RH  020%=      5-min Rain = 0
KGU1 241738Z 28016KT 18/M06 A3019 RMK A01 T01791056  RH  020%=      5-min Rain = 0
KGU1 241739Z 28021G26KT 18/M06 A302 RMK A01 T01781057  RH  020%=      5-min Rain = 0
KGU1 241740Z 27019G26KT 18/M06 A3019 RMK A01 T01751059  RH  020%=      5-min Rain = 0
KGU1 241741Z 25022G31KT 17/M06 A3019 RMK A01 T01721063  RH  019%=      5-min Rain = 0
KGU1 241742Z 25015G20KT 17/M07 A3019 RMK A01 T01691065  RH  020%=      5-min Rain = 0
KGU1 241743Z 25012G18KT 17/M06 A3019 RMK A01 T01721058  RH  020%=      5-min Rain = 0
KGU1 241744Z 28015G20KT 18/M06 A3019 RMK A01 T01761056  RH  020%=      5-min Rain = 0
KGU1 241745Z 25015KT 18/M06 A3019 RMK A01 T01791058  RH  019%=      5-min Rain = 0
KGU1 241746Z 26012G21KT 18/M06 A3019 RMK A01 T01781059  RH  020%=      5-min Rain = 0
KGU1 241747Z 27022G28KT 18/M06 A3018 RMK A01 T01801059  RH  019%=      5-min Rain = 0
KGU1 241748Z 26015G21KT 18/M06 A3019 RMK A01 T01771062  RH  019%=      5-min Rain = 0
KGU1 241749Z 26019KT 18/M06 A3018 RMK A01 T01751063  RH  019%=      5-min Rain = 0
KGU1 241750Z 27013G23KT 17/M06 A3018 RMK A01 T01731063  RH  019%=      5-min Rain = 0
KGU1 241751Z 28014G23KT 17/M06 A3019 RMK A01 T01741059  RH  020%=      5-min Rain = 0
KGU1 241752Z 28022G35KT 18/M06 A3019 RMK A01 T01761063  RH  019%=      5-min Rain = 0
KGU1 241753Z 23014G21KT 17/M06 A3019 RMK A01 T01741063  RH  019%=      5-min Rain = 0
KGU1 241754Z 23011KT 18/M06 A3018 RMK A01 T01751064  RH  019%=      5-min Rain = 0
KGU1 241755Z 28012G18KT 18/M06 A3019 RMK A01 T01751062  RH  019%=      5-min Rain = 0
KGU1 241756Z 27013G18KT 18/M06 A3019 RMK A01 T01771061  RH  019%=      5-min Rain = 0
KGU1 241757Z 27020G25KT 18/M06 A3018 RMK A01 T01781062  RH  019%=      5-min Rain = 0
KGU1 241758Z 28022KT 18/M06 A3019 RMK A01 T01781062  RH  019%=      5-min Rain = 0
KGU1 241759Z 28017KT 18/M06 A3019 RMK A01 T01791062  RH  019%=      5-min Rain = 0
KGU1 241800Z 28023KT 18/M06 A3019 RMK A01 T01791061  RH  019%=      5-min Rain = 0
KGU1 241801Z 29021G28KT 18/M06 A3019 RMK A01 T01781063  RH  019%=      5-min Rain = 0
KGU1 241802Z 28018G24KT 18/M06 A3019 RMK A01 T01761063  RH  019%=      5-min Rain = 0
KGU1 241803Z 27018G23KT 18/M06 A3019 RMK A01 T01761063  RH  019%=      5-min Rain = 0
KGU1 241804Z 29020KT 18/M06 A3019 RMK A01 T01771062  RH  019%=      5-min Rain = 0
KGU1 241805Z 28017G24KT 18/M06 A3019 RMK A01 T01761063  RH  019%=      5-min Rain = 0
KGU1 241806Z 27018KT 17/M06 A3019 RMK A01 T01741063  RH  019%=      5-min Rain = 0
KGU1 241807Z 28017G26KT 17/M06 A3019 RMK A01 T01741063  RH  019%=      5-min Rain = 0
KGU1 241808Z 28021KT 18/M06 A3018 RMK A01 T01761061  RH  019%=      5-min Rain = 0
KGU1 241809Z 28021G26KT 18/M06 A3019 RMK A01 T01751062  RH  019%=      5-min Rain = 0
KGU1 241810Z 29017G22KT 18/M06 A3019 RMK A01 T01751061  RH  019%=      5-min Rain = 0
KGU1 241811Z 28020G26KT 18/M06 A3019 RMK A01 T01761060  RH  019%=      5-min Rain = 0
KGU1 241812Z 28017G24KT 18/M06 A3019 RMK A01 T01771060  RH  019%=      5-min Rain = 0
KGU1 241813Z 28022G28KT 18/M06 A3018 RMK A01 T01771060  RH  019%=      5-min Rain = 0
KGU1 241814Z 29022G27KT 18/M06 A3019 RMK A01 T01781060  RH  019%=      5-min Rain = 0
KGU1 241815Z 29022KT 18/M06 A3018 RMK A01 T01791062  RH  019%=      5-min Rain = 0
KGU1 241816Z 29022G30KT 18/M06 A3018 RMK A01 T01781062  RH  019%=      5-min Rain = 0
KGU1 241817Z 29020KT 18/M06 A3019 RMK A01 T01761063  RH  019%=      5-min Rain = 0
KGU1 241818Z 30020G29KT 18/M06 A3019 RMK A01 T01761063  RH  019%=      5-min Rain = 0
KGU1 241819Z 31021G26KT 18/M07 A3019 RMK A01 T01751066  RH  019%=      5-min Rain = 0
KGU1 241820Z 29018G24KT 17/M06 A3018 RMK A01 T01741064  RH  019%=      5-min Rain = 0
KGU1 241821Z 26014G19KT 18/M07 A3018 RMK A01 T01751065  RH  019%=      5-min Rain = 0
KGU1 241822Z 27012KT 17/M07 A3018 RMK A01 T01741067  RH  019%=      5-min Rain = 0
KGU1 241823Z 28010G18KT 17/M07 A3018 RMK A01 T01731067  RH  019%=      5-min Rain = 0
KGU1 241824Z 29018KT 18/M06 A3018 RMK A01 T01761061  RH  019%=      5-min Rain = 0
KGU1 241825Z 29018G23KT 18/M06 A3018 RMK A01 T01801060  RH  019%=      5-min Rain = 0
KGU1 241826Z 29019KT 18/M06 A3018 RMK A01 T01821059  RH  019%=      5-min Rain = 0
KGU1 241827Z 28013KT 18/M06 A3018 RMK A01 T01801062  RH  019%=      5-min Rain = 0
KGU1 241828Z 29020G25KT 18/M06 A3018 RMK A01 T01801058  RH  019%=      5-min Rain = 0
KGU1 241829Z 29016KT 18/M06 A3018 RMK A01 T01791062  RH  019%=      5-min Rain = 0
KGU1 241830Z 29015G20KT 18/M06 A3018 RMK A01 T01801060  RH  019%=      5-min Rain = 0
KGU1 241831Z 27010G17KT 18/M06 A3018 RMK A01 T01831055  RH  019%=      5-min Rain = 0
KGU1 241832Z 27010G17KT 19/M06 A3017 RMK A01 T01891056  RH  019%=      5-min Rain = 0
KGU1 241833Z 24015KT 19/M06 A3017 RMK A01 T01891060  RH  018%=      5-min Rain = 0
KGU1 241834Z 23014G20KT 19/M06 A3017 RMK A01 T01881059  RH  018%=      5-min Rain = 0
KGU1 241835Z 22017G24KT 19/M06 A3017 RMK A01 T01851063  RH  018%=      5-min Rain = 0
KGU1 241836Z 27007G13KT 18/M06 A3017 RMK A01 T01811064  RH  018%=      5-min Rain = 0
KGU1 241837Z 23008G18KT 18/M06 A3017 RMK A01 T01801062  RH  019%=      5-min Rain = 0
KGU1 241838Z 25016KT 18/M06 A3017 RMK A01 T01811061  RH  019%=      5-min Rain = 0
KGU1 241839Z 29017G26KT 18/M06 A3017 RMK A01 T01811063  RH  018%=      5-min Rain = 0
KGU1 241840Z 30020G26KT 18/M06 A3018 RMK A01 T01821061  RH  019%=      5-min Rain = 0
KGU1 241841Z 31018G28KT 18/M06 A3017 RMK A01 T01811062  RH  019%=      5-min Rain = 0
KGU1 241842Z 28014G19KT 18/M06 A3017 RMK A01 T01801064  RH  018%=      5-min Rain = 0
KGU1 241843Z 27015KT 18/M06 A3017 RMK A01 T01801060  RH  019%=      5-min Rain = 0
KGU1 241844Z 24016G23KT 18/M06 A3017 RMK A01 T01831060  RH  019%=      5-min Rain = 0
KGU1 241845Z 25014G20KT 18/M06 A3017 RMK A01 T01841062  RH  018%=      5-min Rain = 0
KGU1 241846Z 27014G21KT 18/M06 A3018 RMK A01 T01831062  RH  018%=      5-min Rain = 0
KGU1 241847Z 27016G22KT 18/M06 A3018 RMK A01 T01831062  RH  018%=      5-min Rain = 0
KGU1 241848Z 27011G19KT 18/M07 A3017 RMK A01 T01811065  RH  018%=      5-min Rain = 0
KGU1 241849Z 27015KT 18/M06 A3017 RMK A01 T01821061  RH  019%=      5-min Rain = 0
KGU1 241850Z 28014KT 18/M06 A3017 RMK A01 T01831061  RH  018%=      5-min Rain = 0
KGU1 241851Z 28016G21KT 18/M06 A3017 RMK A01 T01841061  RH  018%=      5-min Rain = 0
KGU1 241852Z 29015G20KT 19/M06 A3017 RMK A01 T01851061  RH  018%=      5-min Rain = 0
KGU1 241853Z 29020G25KT 18/M06 A3017 RMK A01 T01841061  RH  018%=      5-min Rain = 0
KGU1 241854Z 29017KT 18/M06 A3017 RMK A01 T01841059  RH  019%=      5-min Rain = 0
KGU1 241855Z 28018KT 19/M06 A3017 RMK A01 T01881058  RH  018%=      5-min Rain = 0
KGU1 241856Z 28014KT 18/M06 A3017 RMK A01 T01841060  RH  018%=      5-min Rain = 0
KGU1 241857Z 29014KT 19/M06 A3017 RMK A01 T01861059  RH  018%=      5-min Rain = 0
KGU1 241858Z 29019G28KT 19/M06 A3017 RMK A01 T01851060  RH  018%=      5-min Rain = 0
KGU1 241859Z 27014G24KT 18/M06 A3017 RMK A01 T01831062  RH  018%=      5-min Rain = 0
KGU1 241900Z 28018G25KT 18/M06 A3017 RMK A01 T01821062  RH  018%=      5-min Rain = 0
KGU1 241901Z 29016KT 18/M06 A3017 RMK A01 T01821062  RH  018%=      5-min Rain = 0
KGU1 241902Z 30017KT 18/M07 A3017 RMK A01 T01831065  RH  018%=      5-min Rain = 0
KGU1 241903Z 29015G20KT 18/M07 A3017 RMK A01 T01811066  RH  018%=      5-min Rain = 0
KGU1 241904Z 27012KT 18/M06 A3017 RMK A01 T01821063  RH  018%=      5-min Rain = 0
KGU1 241905Z 25011G17KT 18/M06 A3017 RMK A01 T01831063  RH  018%=      5-min Rain = 0
KGU1 241906Z 23008KT 19/M06 A3017 RMK A01 T01851063  RH  018%=      5-min Rain = 0
KGU1 241907Z 26012KT 19/M06 A3017 RMK A01 T01861064  RH  018%=      5-min Rain = 0
KGU1 241908Z 25008G13KT 18/M07 A3017 RMK A01 T01841066  RH  018%=      5-min Rain = 0
KGU1 241909Z 23017G25KT 19/M06 A3017 RMK A01 T01851064  RH  018%=      5-min Rain = 0
KGU1 241910Z 23015G20KT 18/M07 A3017 RMK A01 T01831068  RH  017%=      5-min Rain = 0
KGU1 241911Z 22010G15KT 18/M07 A3017 RMK A01 T01821067  RH  018%=      5-min Rain = 0
KGU1 241912Z 25011KT 18/M07 A3016 RMK A01 T01821066  RH  018%=      5-min Rain = 0
KGU1 241913Z 24013G22KT 18/M07 A3016 RMK A01 T01841066  RH  018%=      5-min Rain = 0
KGU1 241914Z 23014G23KT 18/M07 A3016 RMK A01 T01831068  RH  017%=      5-min Rain = 0
KGU1 241915Z 27007KT 18/M07 A3017 RMK A01 T01821067  RH  018%=      5-min Rain = 0
KGU1 241916Z 26006KT 18/M06 A3016 RMK A01 T01841064  RH  018%=      5-min Rain = 0
KGU1 241917Z 20009G20KT 19/M06 A3016 RMK A01 T01851064  RH  018%=      5-min Rain = 0
KGU1 241918Z 19018KT 19/M07 A3015 RMK A01 T01871065  RH  017%=      5-min Rain = 0
KGU1 241919Z 19015KT 19/M07 A3015 RMK A01 T01871065  RH  017%=      5-min Rain = 0
KGU1 241920Z 22016G22KT 19/M07 A3016 RMK A01 T01881066  RH  017%=      5-min Rain = 0
KGU1 241921Z 24013KT 18/M07 A3016 RMK A01 T01841070  RH  017%=      5-min Rain = 0
KGU1 241922Z 23008G13KT 18/M07 A3016 RMK A01 T01811070  RH  017%=      5-min Rain = 0
KGU1 241923Z 23007KT 18/M07 A3016 RMK A01 T01801068  RH  018%=      5-min Rain = 0
KGU1 241924Z 24008G14KT 18/M07 A3016 RMK A01 T01831066  RH  018%=      5-min Rain = 0
KGU1 241925Z 29015G23KT 19/M07 A3016 RMK A01 T01861066  RH  017%=      5-min Rain = 0
KGU1 241926Z 27016KT 19/M07 A3016 RMK A01 T01891069  RH  017%=      5-min Rain = 0
KGU1 241927Z 28017KT 19/M07 A3016 RMK A01 T01911066  RH  017%=      5-min Rain = 0
KGU1 241928Z 29016KT 19/M07 A3016 RMK A01 T01921070  RH  016%=      5-min Rain = 0
KGU1 241929Z 25007KT 19/M07 A3016 RMK A01 T01901067  RH  017%=      5-min Rain = 0
KGU1 241930Z 24012KT 19/M07 A3016 RMK A01 T01891072  RH  016%=      5-min Rain = 0
KGU1 241931Z 25011G16KT 19/M07 A3016 RMK A01 T01871073  RH  016%=      5-min Rain = 0
KGU1 241932Z 25007KT 19/M07 A3016 RMK A01 T01871072  RH  017%=      5-min Rain = 0
KGU1 241933Z 24010KT 19/M07 A3016 RMK A01 T01901071  RH  016%=      5-min Rain = 0
KGU1 241934Z 22014KT 19/M07 A3016 RMK A01 T01911069  RH  016%=      5-min Rain = 0
KGU1 241935Z 22011KT 19/M07 A3016 RMK A01 T01921071  RH  016%=      5-min Rain = 0
KGU1 241936Z 24006G14KT 19/M07 A3016 RMK A01 T01931072  RH  016%=      5-min Rain = 0
KGU1 241937Z 24011KT 19/M07 A3015 RMK A01 T01921070  RH  016%=      5-min Rain = 0
KGU1 241938Z 24010KT 19/M07 A3016 RMK A01 T01931069  RH  016%=      5-min Rain = 0
KGU1 241939Z 26007KT 19/M07 A3016 RMK A01 T01931070  RH  016%=      5-min Rain = 0
KGU1 241940Z 28014G21KT 20/M07 A3016 RMK A01 T01951067  RH  016%=      5-min Rain = 0
KGU1 241941Z 29017G22KT 20/M07 A3016 RMK A01 T01981068  RH  016%=      5-min Rain = 0
KGU1 241942Z 28015G22KT 20/M07 A3016 RMK A01 T01971069  RH  016%=      5-min Rain = 0
KGU1 241943Z 27015G20KT 20/M07 A3016 RMK A01 T01981070  RH  016%=      5-min Rain = 0
KGU1 241944Z 26010KT 20/M07 A3016 RMK A01 T01981070  RH  016%=      5-min Rain = 0
KGU1 241945Z 28008G13KT 20/M07 A3016 RMK A01 T01971072  RH  016%=      5-min Rain = 0
KGU1 241946Z 29018G23KT 20/M07 A3016 RMK A01 T01951073  RH  016%=      5-min Rain = 0
KGU1 241947Z 30018G23KT 20/M07 A3016 RMK A01 T01961071  RH  016%=      5-min Rain = 0
KGU1 241948Z 29027G33KT 20/M07 A3016 RMK A01 T01961074  RH  015%=      5-min Rain = 0
KGU1 241949Z 29012G22KT 19/M08 A3015 RMK A01 T01891078  RH  016%=      5-min Rain = 0
KGU1 241950Z 29014G20KT 19/M07 A3016 RMK A01 T01891074  RH  016%=      5-min Rain = 0
KGU1 241951Z 29019G24KT 19/M08 A3016 RMK A01 T01891075  RH  016%=      5-min Rain = 0
KGU1 241952Z 28015KT 19/M07 A3015 RMK A01 T01871073  RH  016%=      5-min Rain = 0
KGU1 241953Z 28019G25KT 19/M07 A3015 RMK A01 T01911069  RH  017%=      5-min Rain = 0
KGU1 241954Z 28018G23KT 19/M07 A3015 RMK A01 T01931069  RH  016%=      5-min Rain = 0
KGU1 241955Z 29016KT 19/M07 A3015 RMK A01 T01931069  RH  016%=      5-min Rain = 0
KGU1 241956Z 27019G27KT 19/M07 A3015 RMK A01 T01941068  RH  016%=      5-min Rain = 0
KGU1 241957Z 26020G31KT 20/M08 A3015 RMK A01 T01951080  RH  015%=      5-min Rain = 0
KGU1 241958Z 26020G25KT 19/M09 A3015 RMK A01 T01921088  RH  014%=      5-min Rain = 0
KGU1 241959Z 26014G19KT 19/M09 A3015 RMK A01 T01911088  RH  014%=      5-min Rain = 0
KGU1 242000Z 27011KT 19/M09 A3015 RMK A01 T01921086  RH  014%=      5-min Rain = 0
KGU1 242001Z 29013G21KT 19/M08 A3015 RMK A01 T01911084  RH  015%=      5-min Rain = 0
KGU1 242002Z 28018KT 19/M08 A3015 RMK A01 T01931079  RH  015%=      5-min Rain = 0
KGU1 242003Z 26022G27KT 20/M08 A3015 RMK A01 T01961079  RH  015%=      5-min Rain = 0
KGU1 242004Z 25017KT 19/M08 A3015 RMK A01 T01931082  RH  015%=      5-min Rain = 0
KGU1 242005Z 29016G24KT 19/M08 A3015 RMK A01 T01921079  RH  015%=      5-min Rain = 0
KGU1 242006Z 29023G31KT 19/M08 A3015 RMK A01 T01941076  RH  015%=      5-min Rain = 0
KGU1 242007Z 29025G33KT 20/M07 A3015 RMK A01 T01951074  RH  015%=      5-min Rain = 0
KGU1 242008Z 30021G31KT 20/M07 A3015 RMK A01 T01951073  RH  016%=      5-min Rain = 0
KGU1 242009Z 28019G26KT 19/M08 A3015 RMK A01 T01921077  RH  015%=      5-min Rain = 0
KGU1 242010Z 28022G27KT 19/M08 A3015 RMK A01 T01891079  RH  015%=      5-min Rain = 0
KGU1 242011Z 29018G25KT 19/M08 A3015 RMK A01 T01901076  RH  016%=      5-min Rain = 0
KGU1 242012Z 30024G29KT 19/M08 A3015 RMK A01 T01921078  RH  015%=      5-min Rain = 0
KGU1 242013Z 29024G29KT 19/M08 A3015 RMK A01 T01911078  RH  015%=      5-min Rain = 0
KGU1 242014Z 27020G31KT 19/M08 A3015 RMK A01 T01901079  RH  015%=      5-min Rain = 0
KGU1 242015Z 26012G21KT 19/M08 A3015 RMK A01 T01911077  RH  016%=      5-min Rain = 0
KGU1 242016Z 21015G20KT 19/M08 A3014 RMK A01 T01921080  RH  015%=      5-min Rain = 0
KGU1 242017Z 23011G16KT 19/M08 A3014 RMK A01 T01881083  RH  015%=      5-min Rain = 0
KGU1 242018Z 28012G17KT 19/M08 A3014 RMK A01 T01891078  RH  016%=      5-min Rain = 0
KGU1 242019Z 27017G22KT 19/M08 A3014 RMK A01 T01941075  RH  015%=      5-min Rain = 0
KGU1 242020Z 26013G20KT 20/M08 A3014 RMK A01 T01961079  RH  015%=      5-min Rain = 0
KGU1 242021Z 24017KT 19/M08 A3014 RMK A01 T01931080  RH  015%=      5-min Rain = 0
KGU1 242022Z 24015KT 19/M08 A3014 RMK A01 T01921079  RH  015%=      5-min Rain = 0
KGU1 242023Z 26018KT 19/M08 A3014 RMK A01 T01941077  RH  015%=      5-min Rain = 0
KGU1 242024Z 24017G27KT 20/M08 A3014 RMK A01 T01951075  RH  015%=      5-min Rain = 0
KGU1 242025Z 25027G33KT 19/M08 A3012 RMK A01 T01921078  RH  015%=      5-min Rain = 0
KGU1 242026Z 24022G32KT 19/M08 A3013 RMK A01 T01871080  RH  016%=      5-min Rain = 0
KGU1 242027Z 27021G27KT 19/M08 A3014 RMK A01 T01861079  RH  016%=      5-min Rain = 0
KGU1 242028Z 26017G26KT 19/M08 A3014 RMK A01 T01881079  RH  016%=      5-min Rain = 0
KGU1 242029Z 25017G23KT 19/M08 A3014 RMK A01 T01891077  RH  016%=      5-min Rain = 0
KGU1 242030Z 24015KT 19/M08 A3014 RMK A01 T01911078  RH  015%=      5-min Rain = 0
KGU1 242031Z 26013KT 19/M08 A3014 RMK A01 T01911076  RH  016%=      5-min Rain = 0
KGU1 242032Z 29016G21KT 19/M08 A3014 RMK A01 T01931075  RH  016%=      5-min Rain = 0
KGU1 242033Z 27016G28KT 20/M07 A3014 RMK A01 T01971072  RH  016%=      5-min Rain = 0
KGU1 242034Z 26014G19KT 20/M07 A3014 RMK A01 T01991073  RH  015%=      5-min Rain = 0
KGU1 242035Z 30016G23KT 20/M07 A3015 RMK A01 T01981074  RH  015%=      5-min Rain = 0
KGU1 242036Z 28021G27KT 20/M08 A3014 RMK A01 T01981077  RH  015%=      5-min Rain = 0
KGU1 242037Z 30029G36KT 19/M08 A3014 RMK A01 T01941078  RH  015%=      5-min Rain = 0
KGU1 242038Z 29022G29KT 19/M08 A3014 RMK A01 T01921077  RH  015%=      5-min Rain = 0
KGU1 242039Z 29022G28KT 19/M08 A3014 RMK A01 T01941076  RH  015%=      5-min Rain = 0
KGU1 242040Z 26017G26KT 19/M08 A3014 RMK A01 T01921077  RH  015%=      5-min Rain = 0
KGU1 242041Z 25017KT 19/M08 A3014 RMK A01 T01911078  RH  015%=      5-min Rain = 0
KGU1 242042Z 25020G29KT 19/M08 A3014 RMK A01 T01911078  RH  015%=      5-min Rain = 0
KGU1 242043Z 26019G25KT 19/M08 A3014 RMK A01 T01891079  RH  015%=      5-min Rain = 0
KGU1 242044Z 29016KT 19/M08 A3014 RMK A01 T01911075  RH  016%=      5-min Rain = 0
KGU1 242045Z 27018G24KT 20/M07 A3014 RMK A01 T01951073  RH  016%=      5-min Rain = 0
KGU1 242046Z 27015G22KT 20/M07 A3014 RMK A01 T01981074  RH  015%=      5-min Rain = 0
KGU1 242047Z 29022G29KT 20/M07 A3014 RMK A01 T01971073  RH  015%=      5-min Rain = 0
KGU1 242048Z 28025G30KT 20/M07 A3014 RMK A01 T01961074  RH  015%=      5-min Rain = 0
KGU1 242049Z 28019KT 19/M07 A3014 RMK A01 T01941074  RH  016%=      5-min Rain = 0
KGU1 242050Z 28022KT 20/M08 A3014 RMK A01 T01951075  RH  015%=      5-min Rain = 0
KGU1 242051Z 30021KT 20/M08 A3014 RMK A01 T01961075  RH  015%=      5-min Rain = 0
KGU1 242052Z 30024G31KT 20/M08 A3014 RMK A01 T01961076  RH  015%=      5-min Rain = 0
KGU1 242053Z 30023G28KT 20/M08 A3014 RMK A01 T01951077  RH  015%=      5-min Rain = 0
KGU1 242054Z 29014G26KT 20/M08 A3014 RMK A01 T01961076  RH  015%=      5-min Rain = 0
KGU1 242055Z 29023G31KT 20/M08 A3014 RMK A01 T01971075  RH  015%=      5-min Rain = 0
KGU1 242056Z 27019KT 20/M08 A3013 RMK A01 T01971075  RH  015%=      5-min Rain = 0
KGU1 242057Z 23014G22KT 20/M08 A3013 RMK A01 T01981075  RH  015%=      5-min Rain = 0
KGU1 242058Z 25016G21KT 20/M07 A3013 RMK A01 T01981074  RH  015%=      5-min Rain = 0
KGU1 242059Z 29013KT 20/M08 A3014 RMK A01 T01961075  RH  015%=      5-min Rain = 0
KGU1 242100Z 28016G23KT 20/M07 A3014 RMK A01 T01961073  RH  015%=      5-min Rain = 0
KGU1 242101Z 28022G30KT 20/M07 A3014 RMK A01 T01981074  RH  015%=      5-min Rain = 0
KGU1 242102Z 27023G30KT 20/M08 A3013 RMK A01 T01971078  RH  015%=      5-min Rain = 0
KGU1 242103Z 29019G25KT 20/M08 A3014 RMK A01 T01961077  RH  015%=      5-min Rain = 0
KGU1 242104Z 28019KT 20/M08 A3014 RMK A01 T01951078  RH  015%=      5-min Rain = 0
KGU1 242105Z 28018G25KT 20/M08 A3013 RMK A01 T01951077  RH  015%=      5-min Rain = 0
KGU1 242106Z 28016G23KT 20/M07 A3014 RMK A01 T01971074  RH  015%=      5-min Rain = 0
KGU1 242107Z 26013G21KT 20/M08 A3014 RMK A01 T01991076  RH  015%=      5-min Rain = 0
KGU1 242108Z 30017G24KT 20/M07 A3014 RMK A01 T01991074  RH  015%=      5-min Rain = 0
KGU1 242109Z 29015G24KT 20/M08 A3014 RMK A01 T01991076  RH  015%=      5-min Rain = 0
KGU1 242110Z 27009KT 20/M07 A3014 RMK A01 T01981074  RH  015%=      5-min Rain = 0
KGU1 242111Z 29009KT 20/M07 A3014 RMK A01 T02011074  RH  015%=      5-min Rain = 0
KGU1 242112Z 29014G23KT 20/M07 A3014 RMK A01 T02021073  RH  015%=      5-min Rain = 0
KGU1 242113Z 24013G18KT 20/M08 A3013 RMK A01 T02021078  RH  014%=      5-min Rain = 0
KGU1 242114Z 22011KT 20/M08 A3013 RMK A01 T01991082  RH  014%=      5-min Rain = 0
KGU1 242115Z 22014G27KT 20/M08 A3013 RMK A01 T01961083  RH  014%=      5-min Rain = 0
KGU1 242116Z 23017G22KT 20/M08 A3013 RMK A01 T01981083  RH  014%=      5-min Rain = 0
KGU1 242117Z 24013G26KT 20/M09 A3013 RMK A01 T01961085  RH  014%=      5-min Rain = 0
KGU1 242118Z 25020G28KT 20/M09 A3012 RMK A01 T01951086  RH  014%=      5-min Rain = 0
KGU1 242119Z 28016G22KT 20/M08 A3014 RMK A01 T01971082  RH  014%=      5-min Rain = 0
KGU1 242120Z 25017G22KT 20/M08 A3013 RMK A01 T02001083  RH  014%=      5-min Rain = 0
KGU1 242121Z 28013G21KT 20/M08 A3014 RMK A01 T01991082  RH  014%=      5-min Rain = 0
KGU1 242122Z 25005KT 20/M08 A3014 RMK A01 T02011080  RH  014%=      5-min Rain = 0
KGU1 242123Z 24012KT 20/M08 A3014 RMK A01 T02021081  RH  014%=      5-min Rain = 0
KGU1 242124Z 22013G21KT 20/M08 A3013 RMK A01 T01991084  RH  014%=      5-min Rain = 0
KGU1 242125Z 23011G17KT 20/M09 A3013 RMK A01 T01961087  RH  014%=      5-min Rain = 0
KGU1 242126Z 27011G16KT 19/M09 A3014 RMK A01 T01921086  RH  014%=      5-min Rain = 0
KGU1 242127Z 29016G21KT 19/M09 A3014 RMK A01 T01931086  RH  014%=      5-min Rain = 0
KGU1 242128Z 29010G18KT 19/M09 A3014 RMK A01 T01931089  RH  014%=      5-min Rain = 0
KGU1 242129Z 26009G14KT 19/M09 A3014 RMK A01 T01931087  RH  014%=      5-min Rain = 0
KGU1 242130Z 29010KT 19/M09 A3014 RMK A01 T01941086  RH  014%=      5-min Rain = 0
KGU1 242131Z 27018G23KT 20/M08 A3014 RMK A01 T01961083  RH  014%=      5-min Rain = 0
KGU1 242132Z 24015G25KT 20/M09 A3013 RMK A01 T01981089  RH  014%=      5-min Rain = 0
KGU1 242133Z 27006KT 20/M09 A3014 RMK A01 T01951089  RH  014%=      5-min Rain = 0
KGU1 242134Z 27011G17KT 20/M08 A3014 RMK A01 T01961084  RH  014%=      5-min Rain = 0
KGU1 242135Z 29013G21KT 20/M08 A3014 RMK A01 T01981082  RH  014%=      5-min Rain = 0
KGU1 242136Z 30020KT 20/M08 A3014 RMK A01 T01991082  RH  014%=      5-min Rain = 0
KGU1 242137Z 28020KT 20/M08 A3014 RMK A01 T01991082  RH  014%=      5-min Rain = 0
KGU1 242138Z 27015KT 20/M09 A3014 RMK A01 T01961085  RH  014%=      5-min Rain = 0
KGU1 242139Z 27011G16KT 20/M08 A3014 RMK A01 T01951084  RH  014%=      5-min Rain = 0
KGU1 242140Z 26009G15KT 20/M08 A3014 RMK A01 T01971082  RH  014%=      5-min Rain = 0
KGU1 242141Z 29012KT 20/M08 A3014 RMK A01 T01981083  RH  014%=      5-min Rain = 0
KGU1 242142Z 27016G26KT 20/M08 A3014 RMK A01 T01991082  RH  014%=      5-min Rain = 0
KGU1 242143Z 28021G31KT 20/M08 A3014 RMK A01 T02001083  RH  014%=      5-min Rain = 0
KGU1 242144Z 25010G16KT 20/M09 A3014 RMK A01 T01951087  RH  014%=      5-min Rain = 0
KGU1 242145Z 27015KT 20/M08 A3014 RMK A01 T01961082  RH  014%=      5-min Rain = 0
KGU1 242146Z 26013G18KT 20/M08 A3013 RMK A01 T01971084  RH  014%=      5-min Rain = 0
KGU1 242147Z 29010G16KT 20/M08 A3014 RMK A01 T01971084  RH  014%=      5-min Rain = 0
KGU1 242148Z 26012KT 20/M08 A3014 RMK A01 T01981083  RH  014%=      5-min Rain = 0
KGU1 242149Z 27015G25KT 20/M08 A3014 RMK A01 T01991083  RH  014%=      5-min Rain = 0
KGU1 242150Z 26009G15KT 20/M09 A3014 RMK A01 T01991085  RH  014%=      5-min Rain = 0
KGU1 242151Z 27010KT 20/M08 A3014 RMK A01 T01981084  RH  014%=      5-min Rain = 0
KGU1 242152Z 25012G17KT 20/M08 A3013 RMK A01 T02001084  RH  014%=      5-min Rain = 0
KGU1 242153Z 23008G14KT 20/M09 A3013 RMK A01 T01991085  RH  014%=      5-min Rain = 0
KGU1 242154Z 30016G27KT 20/M08 A3013 RMK A01 T02001084  RH  014%=      5-min Rain = 0
KGU1 242155Z 30021G28KT 20/M08 A3014 RMK A01 T02001084  RH  014%=      5-min Rain = 0
KGU1 242156Z 31015G22KT 20/M09 A3014 RMK A01 T01981086  RH  014%=      5-min Rain = 0
KGU1 242157Z 27018KT 20/M09 A3014 RMK A01 T01981085  RH  014%=      5-min Rain = 0
KGU1 242158Z 28019G24KT 20/M09 A3014 RMK A01 T01981088  RH  014%=      5-min Rain = 0
KGU1 242159Z 24011G17KT 19/M09 A3013 RMK A01 T01941091  RH  014%=      5-min Rain = 0
KGU1 242200Z 25010G16KT 19/M09 A3013 RMK A01 T01941087  RH  014%=      5-min Rain = 0
KGU1 242201Z 29013G22KT 20/M08 A3014 RMK A01 T01991082  RH  014%=      5-min Rain = 0
KGU1 242202Z 29012G17KT 20/M09 A3013 RMK A01 T02011085  RH  014%=      5-min Rain = 0
KGU1 242203Z 26013G18KT 20/M09 A3013 RMK A01 T02001086  RH  014%=      5-min Rain = 0
KGU1 242204Z 24015G23KT 20/M09 A3014 RMK A01 T02011086  RH  014%=      5-min Rain = 0
KGU1 242205Z 26013G19KT 20/M10 A3013 RMK A01 T01981095  RH  013%=      5-min Rain = 0
KGU1 242206Z 28017G22KT 20/M09 A3013 RMK A01 T01961092  RH  013%=      5-min Rain = 0
KGU1 242207Z 30020G25KT 20/M09 A3013 RMK A01 T01991092  RH  013%=      5-min Rain = 0
KGU1 242208Z 29021G26KT 20/M10 A3014 RMK A01 T01981097  RH  013%=      5-min Rain = 0
KGU1 242209Z 29027G33KT 20/M10 A3014 RMK A01 T01971095  RH  013%=      5-min Rain = 0
KGU1 242210Z 28015G24KT 19/M10 A3013 RMK A01 T01941096  RH  013%=      5-min Rain = 0
KGU1 242211Z 28016G27KT 20/M09 A3013 RMK A01 T01951091  RH  014%=      5-min Rain = 0
KGU1 242212Z 26017G25KT 20/M10 A3013 RMK A01 T01971095  RH  013%=      5-min Rain = 0
KGU1 242213Z 25014G20KT 20/M10 A3013 RMK A01 T01951099  RH  013%=      5-min Rain = 0
KGU1 242214Z 29013KT 20/M09 A3013 RMK A01 T01951094  RH  013%=      5-min Rain = 0
KGU1 242215Z 28019G24KT 20/M09 A3013 RMK A01 T01971093  RH  013%=      5-min Rain = 0
KGU1 242216Z 23014KT 20/M09 A3013 RMK A01 T01971094  RH  013%=      5-min Rain = 0
KGU1 242217Z 22011G18KT 20/M09 A3013 RMK A01 T01971093  RH  013%=      5-min Rain = 0
KGU1 242218Z 30017G25KT 20/M09 A3014 RMK A01 T01981090  RH  013%=      5-min Rain = 0
KGU1 242219Z 28021KT 20/M09 A3014 RMK A01 T01991094  RH  013%=      5-min Rain = 0
KGU1 242220Z 28018G23KT 20/M10 A3014 RMK A01 T01961096  RH  013%=      5-min Rain = 0
KGU1 242221Z 29020KT 20/M10 A3014 RMK A01 T01951095  RH  013%=      5-min Rain = 0
KGU1 242222Z 29020G26KT 20/M10 A3013 RMK A01 T01961095  RH  013%=      5-min Rain = 0
KGU1 242223Z 29021KT 20/M10 A3013 RMK A01 T01961095  RH  013%=      5-min Rain = 0
KGU1 242224Z 30027G36KT 20/M09 A3014 RMK A01 T01961094  RH  013%=      5-min Rain = 0
KGU1 242225Z 27019G25KT 20/M09 A3014 RMK A01 T01961092  RH  013%=      5-min Rain = 0
KGU1 242226Z 27017KT 20/M09 A3014 RMK A01 T01991092  RH  013%=      5-min Rain = 0
KGU1 242227Z 25013G18KT 20/M10 A3014 RMK A01 T01981097  RH  013%=      5-min Rain = 0
KGU1 242228Z 28011KT 20/M10 A3014 RMK A01 T01951098  RH  013%=      5-min Rain = 0
KGU1 242229Z 28019G24KT 20/M10 A3014 RMK A01 T01961096  RH  013%=      5-min Rain = 0
KGU1 242230Z 29022G31KT 20/M10 A3014 RMK A01 T01971096  RH  013%=      5-min Rain = 0
KGU1 242231Z 28022KT 20/M10 A3014 RMK A01 T01961097  RH  013%=      5-min Rain = 0
KGU1 242232Z 26013G20KT 19/M10 A3014 RMK A01 T01931101  RH  013%=      5-min Rain = 0
KGU1 242233Z 28022KT 19/M10 A3014 RMK A01 T01931097  RH  013%=      5-min Rain = 0
KGU1 242234Z 28021KT 20/M10 A3014 RMK A01 T01951097  RH  013%=      5-min Rain = 0
KGU1 242235Z 30025KT 19/M10 A3014 RMK A01 T01941097  RH  013%=      5-min Rain = 0
KGU1 242236Z 29016G25KT 19/M10 A3014 RMK A01 T01931097  RH  013%=      5-min Rain = 0
KGU1 242237Z 29016KT 19/M10 A3014 RMK A01 T01941095  RH  013%=      5-min Rain = 0
KGU1 242238Z 30018G23KT 20/M10 A3014 RMK A01 T01951095  RH  013%=      5-min Rain = 0
KGU1 242239Z 27022G27KT 20/M09 A3013 RMK A01 T01951093  RH  013%=      5-min Rain = 0
KGU1 242240Z 26019G25KT 20/M09 A3013 RMK A01 T01951094  RH  013%=      5-min Rain = 0
KGU1 242241Z 27016G21KT 19/M09 A3014 RMK A01 T01941093  RH  013%=      5-min Rain = 0
KGU1 242242Z 28013KT 19/M09 A3014 RMK A01 T01941094  RH  013%=      5-min Rain = 0
KGU1 242243Z 28019G26KT 20/M10 A3014 RMK A01 T01951095  RH  013%=      5-min Rain = 0
KGU1 242244Z 30021G28KT 20/M10 A3013 RMK A01 T01951095  RH  013%=      5-min Rain = 0
KGU1 242245Z 29021KT 20/M09 A3014 RMK A01 T01951093  RH  013%=      5-min Rain = 0
KGU1 242246Z 29018G25KT 20/M09 A3014 RMK A01 T01951093  RH  013%=      5-min Rain = 0
KGU1 242247Z 28016G22KT 20/M09 A3014 RMK A01 T01951090  RH  014%=      5-min Rain = 0
KGU1 242248Z 25016G21KT 20/M09 A3013 RMK A01 T01951093  RH  013%=      5-min Rain = 0
KGU1 242249Z 24016G23KT 19/M09 A3013 RMK A01 T01941094  RH  013%=      5-min Rain = 0
KGU1 242250Z 27014G20KT 19/M09 A3013 RMK A01 T01931092  RH  014%=      5-min Rain = 0
KGU1 242251Z 28014G19KT 19/M09 A3013 RMK A01 T01931092  RH  014%=      5-min Rain = 0
KGU1 242252Z 28016G22KT 19/M09 A3014 RMK A01 T01941090  RH  014%=      5-min Rain = 0
KGU1 242253Z 25013KT 20/M10 A3013 RMK A01 T01951097  RH  013%=      5-min Rain = 0
KGU1 242254Z 26016G23KT 20/M09 A3013 RMK A01 T01951093  RH  013%=      5-min Rain = 0
KGU1 242255Z 26019G27KT 20/M10 A3013 RMK A01 T01951095  RH  013%=      5-min Rain = 0
KGU1 242256Z 26019G25KT 19/M10 A3013 RMK A01 T01941096  RH  013%=      5-min Rain = 0
KGU1 242257Z 26011G18KT 19/M10 A3013 RMK A01 T01931096  RH  013%=      5-min Rain = 0
KGU1 242258Z 27012G22KT 19/M09 A3013 RMK A01 T01941093  RH  013%=      5-min Rain = 0
KGU1 242259Z 27018G25KT 19/M10 A3013 RMK A01 T01941095  RH  013%=      5-min Rain = 0
KGU1 242300Z 28016KT 19/M09 A3013 RMK A01 T01931092  RH  014%=      5-min Rain = 0
KGU1 242301Z 25015KT 19/M09 A3013 RMK A01 T01941092  RH  013%=      5-min Rain = 0
KGU1 242302Z 23011G21KT 19/M09 A3013 RMK A01 T01941094  RH  013%=      5-min Rain = 0
KGU1 242303Z 25010KT 19/M09 A3013 RMK A01 T01941093  RH  013%=      5-min Rain = 0
KGU1 242304Z 25012G17KT 20/M09 A3013 RMK A01 T01951092  RH  013%=      5-min Rain = 0
KGU1 242305Z 23012G19KT 19/M10 A3013 RMK A01 T01941095  RH  013%=      5-min Rain = 0
KGU1 242306Z 26015G25KT 19/M09 A3013 RMK A01 T01941093  RH  013%=      5-min Rain = 0
KGU1 242307Z 26016G21KT 19/M09 A3013 RMK A01 T01941091  RH  014%=      5-min Rain = 0
KGU1 242308Z 29018KT 19/M09 A3013 RMK A01 T01921091  RH  014%=      5-min Rain = 0
KGU1 242309Z 28016KT 19/M09 A3013 RMK A01 T01911090  RH  014%=      5-min Rain = 0
KGU1 242310Z 29014KT 19/M09 A3013 RMK A01 T01931088  RH  014%=      5-min Rain = 0
KGU1 242311Z 28016G21KT 19/M09 A3013 RMK A01 T01941088  RH  014%=      5-min Rain = 0
KGU1 242312Z 27016KT 20/M09 A3013 RMK A01 T01951087  RH  014%=      5-min Rain = 0
KGU1 242313Z 26018KT 20/M09 A3013 RMK A01 T01961088  RH  014%=      5-min Rain = 0
KGU1 242314Z 25019G24KT 19/M10 A3013 RMK A01 T01941095  RH  013%=      5-min Rain = 0
KGU1 242315Z 25021G26KT 19/M10 A3013 RMK A01 T01921095  RH  013%=      5-min Rain = 0
KGU1 242316Z 26016G23KT 19/M09 A3013 RMK A01 T01911094  RH  014%=      5-min Rain = 0
KGU1 242317Z 25019G25KT 19/M09 A3013 RMK A01 T01911094  RH  014%=      5-min Rain = 0
KGU1 242318Z 27013G19KT 19/M09 A3014 RMK A01 T01911093  RH  014%=      5-min Rain = 0
KGU1 242319Z 28020G27KT 19/M09 A3014 RMK A01 T01931093  RH  014%=      5-min Rain = 0
KGU1 242320Z 26019KT 19/M10 A3014 RMK A01 T01931098  RH  013%=      5-min Rain = 0
KGU1 242321Z 25013G19KT 19/M10 A3014 RMK A01 T01911104  RH  012%=      5-min Rain = 0
KGU1 242322Z 26014G19KT 19/M10 A3014 RMK A01 T01911101  RH  013%=      5-min Rain = 0
KGU1 242323Z 24015G20KT 19/M10 A3014 RMK A01 T01921100  RH  013%=      5-min Rain = 0
KGU1 242324Z 23013G22KT 19/M10 A3014 RMK A01 T01911101  RH  013%=      5-min Rain = 0
KGU1 242325Z 23015G23KT 19/M10 A3014 RMK A01 T01901102  RH  013%=      5-min Rain = 0
KGU1 242326Z 24010G15KT 19/M10 A3013 RMK A01 T01901101  RH  013%=      5-min Rain = 0
KGU1 242327Z 27010KT 19/M10 A3014 RMK A01 T01901100  RH  013%=      5-min Rain = 0
KGU1 242328Z 24013G19KT 19/M10 A3014 RMK A01 T01911097  RH  013%=      5-min Rain = 0
KGU1 242329Z 26013KT 19/M10 A3014 RMK A01 T01911098  RH  013%=      5-min Rain = 0
KGU1 242330Z 29016KT 19/M10 A3014 RMK A01 T01931096  RH  013%=      5-min Rain = 0
KGU1 242331Z 28010G15KT 19/M10 A3014 RMK A01 T01931098  RH  013%=      5-min Rain = 0
KGU1 242332Z 28013G18KT 19/M10 A3014 RMK A01 T01921095  RH  013%=      5-min Rain = 0
KGU1 242333Z 27012KT 19/M09 A3014 RMK A01 T01941094  RH  013%=      5-min Rain = 0
KGU1 242334Z 24014KT 19/M10 A3014 RMK A01 T01941099  RH  013%=      5-min Rain = 0
KGU1 242335Z 26017G24KT 19/M10 A3014 RMK A01 T01931101  RH  013%=      5-min Rain = 0
KGU1 242336Z 27011G23KT 19/M10 A3014 RMK A01 T01921102  RH  013%=      5-min Rain = 0
KGU1 242337Z 26016G22KT 19/M10 A3014 RMK A01 T01921102  RH  013%=      5-min Rain = 0
KGU1 242338Z 27016KT 19/M10 A3014 RMK A01 T01921104  RH  012%=      5-min Rain = 0
KGU1 242339Z 27013KT 19/M10 A3014 RMK A01 T01921104  RH  012%=      5-min Rain = 0
KGU1 242340Z 27014G27KT 19/M10 A3014 RMK A01 T01921101  RH  013%=      5-min Rain = 0
KGU1 242341Z 25017G26KT 19/M10 A3014 RMK A01 T01921104  RH  012%=      5-min Rain = 0
KGU1 242342Z 26012G19KT 19/M11 A3014 RMK A01 T01901105  RH  012%=      5-min Rain = 0
KGU1 242343Z 28015KT 19/M10 A3014 RMK A01 T01901102  RH  013%=      5-min Rain = 0
KGU1 242344Z 29014G20KT 19/M10 A3014 RMK A01 T01911100  RH  013%=      5-min Rain = 0
KGU1 242345Z 28021G27KT 19/M10 A3014 RMK A01 T01921099  RH  013%=      5-min Rain = 0
KGU1 242346Z 25012G22KT 19/M10 A3014 RMK A01 T01921101  RH  013%=      5-min Rain = 0
KGU1 242347Z 25014G23KT 19/M10 A3014 RMK A01 T01911103  RH  013%=      5-min Rain = 0
KGU1 242348Z 26018G25KT 19/M10 A3014 RMK A01 T01901104  RH  013%=      5-min Rain = 0
KGU1 242349Z 26014G19KT 19/M11 A3014 RMK A01 T01901105  RH  013%=      5-min Rain = 0
KGU1 242350Z 24013KT 19/M11 A3014 RMK A01 T01891106  RH  013%=      5-min Rain = 0
KGU1 242351Z 23011G17KT 19/M10 A3013 RMK A01 T01881104  RH  013%=      5-min Rain = 0
KGU1 242352Z 25015G24KT 19/M11 A3013 RMK A01 T01881105  RH  013%=      5-min Rain = 0
KGU1 242353Z 27016G30KT 19/M10 A3014 RMK A01 T01881102  RH  013%=      5-min Rain = 0
KGU1 242354Z 27016KT 19/M10 A3014 RMK A01 T01881104  RH  013%=      5-min Rain = 0
KGU1 242355Z 26018KT 19/M10 A3014 RMK A01 T01881104  RH  013%=      5-min Rain = 0
KGU1 242356Z 28013KT 19/M10 A3014 RMK A01 T01881103  RH  013%=      5-min Rain = 0
KGU1 242357Z 29014KT 19/M10 A3014 RMK A01 T01891103  RH  013%=      5-min Rain = 0
KGU1 242358Z 28014KT 19/M11 A3014 RMK A01 T01891106  RH  012%=      5-min Rain = 0
KGU1 242359Z 26013KT 19/M11 A3014 RMK A01 T01891106  RH  013%=      5-min Rain = 0
KGU1 250000Z 28011KT 19/M10 A3014 RMK A01 T01891103  RH  013%=      5-min Rain = 0
KGU1 250001Z 28018G23KT 19/M10 A3014 RMK A01 T01891103  RH  013%=      5-min Rain = 0
KGU1 250002Z 27017KT 19/M10 A3015 RMK A01 T01891102  RH  013%=      5-min Rain = 0
KGU1 250003Z 26015KT 19/M10 A3014 RMK A01 T01891104  RH  013%=      5-min Rain = 0
KGU1 250004Z 25010KT 19/M11 A3015 RMK A01 T01881106  RH  013%=      5-min Rain = 0
KGU1 250005Z 27014KT 19/M10 A3015 RMK A01 T01881103  RH  013%=      5-min Rain = 0
KGU1 250006Z 26011KT 19/M10 A3015 RMK A01 T01881104  RH  013%=      5-min Rain = 0
KGU1 250007Z 26014G22KT 19/M10 A3014 RMK A01 T01881103  RH  013%=      5-min Rain = 0
KGU1 250008Z 27013G18KT 19/M10 A3015 RMK A01 T01881099  RH  013%=      5-min Rain = 0
KGU1 250009Z 27013KT 19/M10 A3015 RMK A01 T01881100  RH  013%=      5-min Rain = 0
KGU1 250010Z 27016G23KT 19/M10 A3015 RMK A01 T01881099  RH  013%=      5-min Rain = 0
KGU1 250011Z 27018KT 19/M10 A3014 RMK A01 T01861099  RH  013%=      5-min Rain = 0
KGU1 250012Z 26014KT 19/M10 A3014 RMK A01 T01861099  RH  013%=      5-min Rain = 0
KGU1 250013Z 26015KT 19/M10 A3014 RMK A01 T01861100  RH  013%=      5-min Rain = 0
KGU1 250014Z 25012KT 19/M10 A3014 RMK A01 T01861099  RH  013%=      5-min Rain = 0
KGU1 250015Z 23015G20KT 19/M10 A3014 RMK A01 T01861100  RH  013%=      5-min Rain = 0
KGU1 250016Z 25013KT 19/M10 A3014 RMK A01 T01861099  RH  013%=      5-min Rain = 0
KGU1 250017Z 26013KT 19/M10 A3014 RMK A01 T01861099  RH  013%=      5-min Rain = 0
KGU1 250018Z 24016G27KT 19/M10 A3014 RMK A01 T01861100  RH  013%=      5-min Rain = 0
KGU1 250019Z 26014G19KT 19/M10 A3014 RMK A01 T01861102  RH  013%=      5-min Rain = 0
KGU1 250020Z 27017KT 19/M10 A3015 RMK A01 T01861099  RH  013%=      5-min Rain = 0
KGU1 250021Z 29019G25KT 19/M10 A3015 RMK A01 T01851099  RH  014%=      5-min Rain = 0
KGU1 250022Z 29020G28KT 18/M10 A3015 RMK A01 T01831099  RH  014%=      5-min Rain = 0
KGU1 250023Z 29021G26KT 18/M10 A3015 RMK A01 T01821100  RH  014%=      5-min Rain = 0
KGU1 250024Z 26014KT 18/M10 A3015 RMK A01 T01811101  RH  014%=      5-min Rain = 0
KGU1 250025Z 26010KT 18/M10 A3015 RMK A01 T01801100  RH  014%=      5-min Rain = 0
KGU1 250026Z 22010KT 18/M10 A3014 RMK A01 T01791100  RH  014%=      5-min Rain = 0
KGU1 250027Z 27008KT 18/M10 A3015 RMK A01 T01781101  RH  014%=      5-min Rain = 0
KGU1 250028Z 23011G17KT 18/M10 A3015 RMK A01 T01771100  RH  014%=      5-min Rain = 0
KGU1 250029Z 24014G23KT 18/M10 A3015 RMK A01 T01781101  RH  014%=      5-min Rain = 0
KGU1 250030Z 25017G22KT 18/M10 A3015 RMK A01 T01781102  RH  014%=      5-min Rain = 0
KGU1 250031Z 23017G22KT 18/M10 A3015 RMK A01 T01781100  RH  014%=      5-min Rain = 0
KGU1 250032Z 22011G22KT 18/M10 A3015 RMK A01 T01781097  RH  014%=      5-min Rain = 0
KGU1 250033Z 25012KT 18/M10 A3015 RMK A01 T01781097  RH  014%=      5-min Rain = 0
KGU1 250034Z 27015KT 18/M10 A3016 RMK A01 T01771096  RH  015%=      5-min Rain = 0
KGU1 250035Z 27016KT 18/M10 A3016 RMK A01 T01761095  RH  015%=      5-min Rain = 0
KGU1 250036Z 28017G23KT 18/M09 A3016 RMK A01 T01761094  RH  015%=      5-min Rain = 0
KGU1 250037Z 27014KT 18/M10 A3015 RMK A01 T01751095  RH  015%=      5-min Rain = 0
KGU1 250038Z 28017KT 18/M09 A3016 RMK A01 T01751094  RH  015%=      5-min Rain = 0
KGU1 250039Z 27017KT 17/M09 A3016 RMK A01 T01741093  RH  015%=      5-min Rain = 0
KGU1 250040Z 24011KT 17/M09 A3015 RMK A01 T01741094  RH  015%=      5-min Rain = 0
KGU1 250041Z 24011KT 18/M10 A3015 RMK A01 T01751095  RH  015%=      5-min Rain = 0
KGU1 250042Z 27014KT 18/M09 A3016 RMK A01 T01761094  RH  015%=      5-min Rain = 0
KGU1 250043Z 25014G19KT 18/M10 A3016 RMK A01 T01751095  RH  015%=      5-min Rain = 0
KGU1 250044Z 28019KT 18/M10 A3015 RMK A01 T01761095  RH  015%=      5-min Rain = 0
KGU1 250045Z 28018G25KT 18/M09 A3015 RMK A01 T01751093  RH  015%=      5-min Rain = 0
KGU1 250046Z 26017KT 17/M09 A3015 RMK A01 T01741092  RH  015%=      5-min Rain = 0
KGU1 250047Z 27014KT 17/M09 A3015 RMK A01 T01741093  RH  015%=      5-min Rain = 0
KGU1 250048Z 26010KT 17/M09 A3015 RMK A01 T01741092  RH  015%=      5-min Rain = 0
KGU1 250049Z 27006G11KT 17/M09 A3015 RMK A01 T01731093  RH  015%=      5-min Rain = 0
KGU1 250050Z 26013KT 17/M09 A3015 RMK A01 T01731092  RH  015%=      5-min Rain = 0
KGU1 250051Z 26014G20KT 17/M09 A3015 RMK A01 T01731093  RH  015%=      5-min Rain = 0
KGU1 250052Z 27011KT 17/M09 A3015 RMK A01 T01731092  RH  015%=      5-min Rain = 0
KGU1 250053Z 27016KT 17/M09 A3015 RMK A01 T01721091  RH  016%=      5-min Rain = 0
KGU1 250054Z 28014KT 17/M09 A3015 RMK A01 T01721092  RH  016%=      5-min Rain = 0
KGU1 250055Z 27015KT 17/M09 A3015 RMK A01 T01721092  RH  016%=      5-min Rain = 0
KGU1 250056Z 28017KT 17/M09 A3015 RMK A01 T01721093  RH  015%=      5-min Rain = 0
KGU1 250057Z 27014G19KT 17/M09 A3015 RMK A01 T01721092  RH  016%=      5-min Rain = 0
KGU1 250058Z 26017G22KT 17/M09 A3015 RMK A01 T01721092  RH  016%=      5-min Rain = 0
KGU1 250059Z 27016KT 17/M09 A3015 RMK A01 T01731092  RH  015%=      5-min Rain = 0
KGU1 250100Z 27013KT 17/M09 A3015 RMK A01 T01731092  RH  015%=      5-min Rain = 0
KGU1 250101Z 27015KT 17/M09 A3015 RMK A01 T01721091  RH  016%=      5-min Rain = 0
KGU1 250102Z 27017G22KT 17/M09 A3015 RMK A01 T01721091  RH  016%=      5-min Rain = 0
KGU1 250103Z 26014G19KT 17/M09 A3015 RMK A01 T01721091  RH  016%=      5-min Rain = 0
KGU1 250104Z 26011KT 17/M09 A3016 RMK A01 T01721091  RH  016%=      5-min Rain = 0
KGU1 250105Z 26014G19KT 17/M09 A3015 RMK A01 T01721091  RH  016%=      5-min Rain = 0
KGU1 250106Z 27015KT 17/M09 A3016 RMK A01 T01721093  RH  015%=      5-min Rain = 0
KGU1 250107Z 28014KT 17/M09 A3016 RMK A01 T01721091  RH  016%=      5-min Rain = 0
KGU1 250108Z 28016G23KT 17/M09 A3016 RMK A01 T01701091  RH  016%=      5-min Rain = 0
KGU1 250109Z 27014G19KT 17/M09 A3015 RMK A01 T01711093  RH  016%=      5-min Rain = 0
KGU1 250110Z 28018G23KT 17/M09 A3016 RMK A01 T01711092  RH  016%=      5-min Rain = 0
KGU1 250111Z 28018KT 17/M09 A3016 RMK A01 T01711092  RH  016%=      5-min Rain = 0
KGU1 250112Z 27014KT 17/M09 A3016 RMK A01 T01711093  RH  016%=      5-min Rain = 0
KGU1 250113Z 26014G22KT 17/M09 A3016 RMK A01 T01701092  RH  016%=      5-min Rain = 0
KGU1 250114Z 27015KT 17/M09 A3016 RMK A01 T01701093  RH  016%=      5-min Rain = 0
KGU1 250115Z 27015KT 17/M09 A3016 RMK A01 T01701093  RH  016%=      5-min Rain = 0
KGU1 250116Z 28015KT 17/M09 A3016 RMK A01 T01701093  RH  016%=      5-min Rain = 0
KGU1 250117Z 27014KT 17/M09 A3016 RMK A01 T01691093  RH  016%=      5-min Rain = 0
KGU1 250118Z 28014KT 17/M09 A3016 RMK A01 T01691094  RH  016%=      5-min Rain = 0
KGU1 250119Z 28018G23KT 17/M09 A3016 RMK A01 T01691094  RH  016%=      5-min Rain = 0
KGU1 250120Z 28018KT 17/M10 A3016 RMK A01 T01691096  RH  015%=      5-min Rain = 0
KGU1 250121Z 29014KT 17/M10 A3016 RMK A01 T01701096  RH  015%=      5-min Rain = 0
KGU1 250122Z 29014KT 17/M10 A3016 RMK A01 T01691096  RH  015%=      5-min Rain = 0
KGU1 250123Z 28014KT 17/M10 A3016 RMK A01 T01691097  RH  015%=      5-min Rain = 0
KGU1 250124Z 27011KT 17/M10 A3016 RMK A01 T01681096  RH  015%=      5-min Rain = 0
KGU1 250125Z 28018KT 17/M10 A3016 RMK A01 T01671097  RH  015%=      5-min Rain = 0
KGU1 250126Z 29017KT 17/M10 A3017 RMK A01 T01681099  RH  015%=      5-min Rain = 0
KGU1 250127Z 28015KT 17/M10 A3017 RMK A01 T01681099  RH  015%=      5-min Rain = 0
KGU1 250128Z 29011KT 17/M10 A3017 RMK A01 T01681098  RH  015%=      5-min Rain = 0
KGU1 250129Z 28012G17KT 17/M10 A3017 RMK A01 T01661097  RH  015%=      5-min Rain = 0
KGU1 250130Z 28015G23KT 17/M10 A3017 RMK A01 T01661099  RH  015%=      5-min Rain = 0
KGU1 250131Z 26017KT 17/M10 A3017 RMK A01 T01681099  RH  015%=      5-min Rain = 0
KGU1 250132Z 28017KT 17/M10 A3017 RMK A01 T01681099  RH  015%=      5-min Rain = 0
KGU1 250133Z 27019G24KT 17/M10 A3017 RMK A01 T01681099  RH  015%=      5-min Rain = 0
KGU1 250134Z 29018KT 17/M10 A3017 RMK A01 T01691099  RH  015%=      5-min Rain = 0
KGU1 250135Z 29013G21KT 17/M10 A3017 RMK A01 T01691099  RH  015%=      5-min Rain = 0
KGU1 250136Z 29015KT 17/M10 A3017 RMK A01 T01681100  RH  015%=      5-min Rain = 0
KGU1 250137Z 29014KT 17/M10 A3017 RMK A01 T01681100  RH  015%=      5-min Rain = 0
KGU1 250138Z 28011KT 17/M10 A3017 RMK A01 T01671099  RH  015%=      5-min Rain = 0
KGU1 250139Z 28011KT 17/M10 A3017 RMK A01 T01661098  RH  015%=      5-min Rain = 0
KGU1 250140Z 29012KT 17/M10 A3018 RMK A01 T01651099  RH  015%=      5-min Rain = 0
KGU1 250141Z 28011KT 17/M10 A3018 RMK A01 T01661100  RH  015%=      5-min Rain = 0
KGU1 250142Z 29010KT 17/M10 A3018 RMK A01 T01661100  RH  015%=      5-min Rain = 0
KGU1 250143Z 28009KT 17/M10 A3018 RMK A01 T01671100  RH  015%=      5-min Rain = 0
KGU1 250144Z 27012KT 17/M10 A3018 RMK A01 T01671100  RH  015%=      5-min Rain = 0
KGU1 250145Z 29013KT 17/M10 A3018 RMK A01 T01671100  RH  015%=      5-min Rain = 0
KGU1 250146Z 29010KT 17/M10 A3018 RMK A01 T01661099  RH  015%=      5-min Rain = 0
KGU1 250147Z 31009KT 17/M10 A3018 RMK A01 T01661099  RH  015%=      5-min Rain = 0
KGU1 250148Z 32008KT 16/M10 A3018 RMK A01 T01641097  RH  016%=      5-min Rain = 0
KGU1 250149Z 29009KT 16/M10 A3019 RMK A01 T01631099  RH  016%=      5-min Rain = 0
KGU1 250150Z 31009KT 17/M10 A3019 RMK A01 T01651100  RH  015%=      5-min Rain = 0
KGU1 250151Z 30008KT 16/M10 A3019 RMK A01 T01641098  RH  016%=      5-min Rain = 0
KGU1 250152Z 29004KT 17/M10 A3019 RMK A01 T01651100  RH  015%=      5-min Rain = 0
KGU1 250153Z 32004KT 17/M10 A3019 RMK A01 T01651100  RH  015%=      5-min Rain = 0
KGU1 250154Z 31005KT 17/M10 A3019 RMK A01 T01651100  RH  015%=      5-min Rain = 0
KGU1 250155Z 30004KT 16/M10 A3019 RMK A01 T01641099  RH  015%=      5-min Rain = 0
KGU1 250156Z 26004KT 16/M10 A3019 RMK A01 T01621099  RH  016%=      5-min Rain = 0
KGU1 250157Z 27004KT 16/M10 A3019 RMK A01 T01611099  RH  016%=      5-min Rain = 0
KGU1 250158Z 29005KT 16/M10 A3019 RMK A01 T01601099  RH  016%=      5-min Rain = 0
KGU1 250159Z 29005KT 16/M10 A3019 RMK A01 T01601099  RH  016%=      5-min Rain = 0
KGU1 250200Z 28006KT 16/M10 A302 RMK A01 T01591097  RH  016%=      5-min Rain = 0
KGU1 250201Z 30004KT 16/M10 A302 RMK A01 T01581098  RH  016%=      5-min Rain = 0
KGU1 250202Z 29006G11KT 16/M10 A302 RMK A01 T01571097  RH  016%=      5-min Rain = 0
KGU1 250203Z 30007KT 16/M10 A302 RMK A01 T01561097  RH  016%=      5-min Rain = 0
KGU1 250204Z 30007KT 16/M10 A302 RMK A01 T01551097  RH  017%=      5-min Rain = 0
KGU1 250205Z 30004KT 16/M10 A302 RMK A01 T01571097  RH  016%=      5-min Rain = 0
KGU1 250206Z 30006KT 16/M10 A302 RMK A01 T01571097  RH  016%=      5-min Rain = 0
KGU1 250207Z 30005KT 16/M10 A302 RMK A01 T01571097  RH  016%=      5-min Rain = 0
KGU1 250208Z 29006KT 16/M10 A302 RMK A01 T01551097  RH  017%=      5-min Rain = 0
KGU1 250209Z 30006KT 16/M10 A302 RMK A01 T01561097  RH  017%=      5-min Rain = 0
KGU1 250210Z 30006KT 15/M10 A302 RMK A01 T01541096  RH  017%=      5-min Rain = 0
KGU1 250211Z 32004KT 15/M10 A302 RMK A01 T01531096  RH  017%=      5-min Rain = 0
KGU1 250212Z 32003KT 15/M10 A302 RMK A01 T01531099  RH  017%=      5-min Rain = 0
KGU1 250213Z 29004KT 16/M10 A302 RMK A01 T01551099  RH  016%=      5-min Rain = 0
KGU1 250214Z 27003KT 16/M10 A3021 RMK A01 T01561098  RH  016%=      5-min Rain = 0
KGU1 250215Z 26002KT 16/M10 A302 RMK A01 T01561097  RH  016%=      5-min Rain = 0
KGU1 250216Z 28004KT 16/M10 A3021 RMK A01 T01561099  RH  016%=      5-min Rain = 0
KGU1 250217Z 27003KT 16/M10 A3021 RMK A01 T01561098  RH  016%=      5-min Rain = 0
KGU1 250218Z 30004KT 16/M10 A3021 RMK A01 T01571098  RH  016%=      5-min Rain = 0
KGU1 250219Z 26003KT 16/M10 A3021 RMK A01 T01561098  RH  016%=      5-min Rain = 0
KGU1 250220Z 28004KT 16/M10 A3021 RMK A01 T01551098  RH  016%=      5-min Rain = 0
KGU1 250221Z 29005KT 16/M10 A3021 RMK A01 T01551098  RH  017%=      5-min Rain = 0
KGU1 250222Z 29006KT 15/M10 A3021 RMK A01 T01541097  RH  017%=      5-min Rain = 0
KGU1 250223Z 31005KT 15/M10 A3021 RMK A01 T01531095  RH  017%=      5-min Rain = 0
KGU1 250224Z 30007KT 15/M10 A3021 RMK A01 T01521095  RH  017%=      5-min Rain = 0
KGU1 250225Z 28009KT 15/M10 A3021 RMK A01 T01521098  RH  017%=      5-min Rain = 0
KGU1 250226Z 29009KT 16/M10 A3021 RMK A01 T01551097  RH  017%=      5-min Rain = 0
KGU1 250227Z 33006KT 16/M10 A3021 RMK A01 T01561096  RH  017%=      5-min Rain = 0
KGU1 250228Z 33003KT 16/M10 A3021 RMK A01 T01551097  RH  017%=      5-min Rain = 0
KGU1 250229Z 33002KT 16/M10 A3022 RMK A01 T01551098  RH  017%=      5-min Rain = 0
KGU1 250230Z 33002KT 16/M10 A3022 RMK A01 T01571100  RH  016%=      5-min Rain = 0
KGU1 250231Z 35002KT 16/M10 A3022 RMK A01 T01591100  RH  016%=      5-min Rain = 0
KGU1 250232Z 00001KT 16/M10 A3022 RMK A01 T01601100  RH  016%=      5-min Rain = 0
KGU1 250233Z 02001KT 16/M10 A3022 RMK A01 T01611100  RH  016%=      5-min Rain = 0
KGU1 250234Z 05001KT 16/M10 A3022 RMK A01 T01611101  RH  016%=      5-min Rain = 0
KGU1 250235Z 05001KT 16/M10 A3022 RMK A01 T01621099  RH  016%=      5-min Rain = 0
KGU1 250236Z 07000KT 16/M10 A3022 RMK A01 T01601099  RH  016%=      5-min Rain = 0
KGU1 250237Z 00001KT 16/M10 A3022 RMK A01 T01591099  RH  016%=      5-min Rain = 0
KGU1 250238Z 01001KT 16/M10 A3022 RMK A01 T01591100  RH  016%=      5-min Rain = 0
KGU1 250239Z 01001KT 16/M10 A3022 RMK A01 T01581098  RH  016%=      5-min Rain = 0
KGU1 250240Z 07001KT 16/M10 A3022 RMK A01 T01561098  RH  016%=      5-min Rain = 0
KGU1 250241Z 18000KT 15/M10 A3022 RMK A01 T01531098  RH  017%=      5-min Rain = 0
KGU1 250242Z 18000KT 15/M10 A3022 RMK A01 T01511098  RH  017%=      5-min Rain = 0
KGU1 250243Z 25001KT 15/M10 A3022 RMK A01 T01501098  RH  017%=      5-min Rain = 0
KGU1 250244Z 25002KT 15/M10 A3022 RMK A01 T01491098  RH  017%=      5-min Rain = 0
KGU1 250245Z 27002KT 15/M10 A3022 RMK A01 T01491099  RH  017%=      5-min Rain = 0
KGU1 250246Z 25000KT 15/M10 A3022 RMK A01 T01491100  RH  017%=      5-min Rain = 0
KGU1 250247Z 11000KT 15/M10 A3022 RMK A01 T01511101  RH  017%=      5-min Rain = 0
KGU1 250248Z 10003KT 15/M10 A3022 RMK A01 T01521101  RH  016%=      5-min Rain = 0
KGU1 250249Z 11004KT 16/M10 A3022 RMK A01 T01551101  RH  016%=      5-min Rain = 0
KGU1 250250Z 10004KT 16/M10 A3022 RMK A01 T01591102  RH  016%=      5-min Rain = 0
KGU1 250251Z 10005KT 16/M10 A3022 RMK A01 T01631101  RH  015%=      5-min Rain = 0
KGU1 250252Z 09003KT 16/M10 A3022 RMK A01 T01631101  RH  015%=      5-min Rain = 0
KGU1 250253Z 11003KT 16/M10 A3022 RMK A01 T01631099  RH  016%=      5-min Rain = 0
KGU1 250254Z 17001KT 16/M10 A3023 RMK A01 T01601096  RH  016%=      5-min Rain = 0
KGU1 250255Z 25002KT 16/M10 A3023 RMK A01 T01571097  RH  016%=      5-min Rain = 0
KGU1 250256Z 25001KT 16/M10 A3023 RMK A01 T01551097  RH  017%=      5-min Rain = 0
KGU1 250257Z 14001KT 15/M10 A3023 RMK A01 T01531099  RH  017%=      5-min Rain = 0
KGU1 250258Z 11001KT 15/M10 A3023 RMK A01 T01521098  RH  017%=      5-min Rain = 0
KGU1 250259Z 04002KT 15/M10 A3023 RMK A01 T01511096  RH  017%=      5-min Rain = 0
KGU1 250300Z 01004KT 15/M10 A3023 RMK A01 T01471095  RH  018%=      5-min Rain = 0
KGU1 250301Z 01003KT 14/M10 A3023 RMK A01 T01441098  RH  018%=      5-min Rain = 0
KGU1 250302Z 02003KT 15/M10 A3023 RMK A01 T01461099  RH  017%=      5-min Rain = 0
KGU1 250303Z 01002KT 15/M10 A3023 RMK A01 T01481101  RH  017%=      5-min Rain = 0
KGU1 250304Z 01001KT 15/M10 A3023 RMK A01 T01501101  RH  017%=      5-min Rain = 0
KGU1 250305Z 04003KT 15/M10 A3023 RMK A01 T01521100  RH  017%=      5-min Rain = 0
KGU1 250306Z 07002KT 15/M10 A3023 RMK A01 T01531100  RH  016%=      5-min Rain = 0
KGU1 250307Z 08003KT 15/M10 A3023 RMK A01 T01531100  RH  016%=      5-min Rain = 0
KGU1 250308Z 07004KT 15/M10 A3023 RMK A01 T01541101  RH  016%=      5-min Rain = 0
KGU1 250309Z 05004KT 16/M10 A3023 RMK A01 T01551103  RH  016%=      5-min Rain = 0
KGU1 250310Z 03002KT 16/M11 A3023 RMK A01 T01581105  RH  015%=      5-min Rain = 0
KGU1 250311Z 33003KT 16/M10 A3023 RMK A01 T01591103  RH  015%=      5-min Rain = 0
KGU1 250312Z 36003KT 16/M10 A3023 RMK A01 T01571100  RH  016%=      5-min Rain = 0
KGU1 250313Z 35002KT 15/M10 A3023 RMK A01 T01531101  RH  016%=      5-min Rain = 0
KGU1 250314Z 33003KT 15/M10 A3023 RMK A01 T01531102  RH  016%=      5-min Rain = 0
KGU1 250315Z 30002KT 15/M10 A3024 RMK A01 T01521100  RH  017%=      5-min Rain = 0
KGU1 250316Z 27002KT 15/M10 A3024 RMK A01 T01491098  RH  017%=      5-min Rain = 0
KGU1 250317Z 28001KT 15/M10 A3024 RMK A01 T01481104  RH  016%=      5-min Rain = 0
KGU1 250318Z 29000KT 15/M11 A3024 RMK A01 T01511107  RH  016%=      5-min Rain = 0
KGU1 250319Z 11000KT 15/M11 A3024 RMK A01 T01541108  RH  015%=      5-min Rain = 0
KGU1 250320Z 13000KT 16/M11 A3024 RMK A01 T01561107  RH  015%=      5-min Rain = 0
KGU1 250321Z 14000KT 16/M10 A3024 RMK A01 T01561103  RH  016%=      5-min Rain = 0
KGU1 250322Z 34001KT 16/M11 A3024 RMK A01 T01561106  RH  015%=      5-min Rain = 0
KGU1 250323Z 32001KT 16/M11 A3024 RMK A01 T01561105  RH  015%=      5-min Rain = 0
KGU1 250324Z 31000KT 16/M11 A3024 RMK A01 T01561107  RH  015%=      5-min Rain = 0
KGU1 250325Z 00000KT 16/M11 A3024 RMK A01 T01561107  RH  015%=      5-min Rain = 0
KGU1 250326Z 22001KT 16/M10 A3024 RMK A01 T01561103  RH  016%=      5-min Rain = 0
KGU1 250327Z 24003KT 15/M10 A3024 RMK A01 T01521100  RH  017%=      5-min Rain = 0
KGU1 250328Z 31002KT 15/M10 A3024 RMK A01 T01491101  RH  017%=      5-min Rain = 0
KGU1 250329Z 30002KT 15/M10 A3024 RMK A01 T01471098  RH  017%=      5-min Rain = 0
KGU1 250330Z 25002KT 15/M10 A3024 RMK A01 T01451098  RH  018%=      5-min Rain = 0
KGU1 250331Z 21002KT 14/M10 A3024 RMK A01 T01431101  RH  017%=      5-min Rain = 0
KGU1 250332Z 21002KT 15/M11 A3024 RMK A01 T01451105  RH  017%=      5-min Rain = 0
KGU1 250333Z 17001KT 15/M11 A3024 RMK A01 T01501110  RH  015%=      5-min Rain = 0
KGU1 250334Z 12003KT 16/M11 A3024 RMK A01 T01561109  RH  015%=      5-min Rain = 0
KGU1 250335Z 16003KT 16/M11 A3024 RMK A01 T01591107  RH  015%=      5-min Rain = 0
KGU1 250336Z 15002KT 16/M11 A3024 RMK A01 T01581105  RH  015%=      5-min Rain = 0
KGU1 250337Z 18002KT 16/M11 A3024 RMK A01 T01571105  RH  015%=      5-min Rain = 0
KGU1 250338Z 18002KT 16/M10 A3024 RMK A01 T01561103  RH  016%=      5-min Rain = 0
KGU1 250339Z 22002KT 16/M11 A3024 RMK A01 T01551106  RH  016%=      5-min Rain = 0
KGU1 250340Z 25002KT 15/M11 A3024 RMK A01 T01541105  RH  016%=      5-min Rain = 0
KGU1 250341Z 27002KT 15/M10 A3024 RMK A01 T01521103  RH  016%=      5-min Rain = 0
KGU1 250342Z 31003KT 15/M10 A3024 RMK A01 T01491102  RH  017%=      5-min Rain = 0
KGU1 250343Z 32005KT 14/M10 A3024 RMK A01 T01431099  RH  018%=      5-min Rain = 0
KGU1 250344Z 32004KT 14/M10 A3025 RMK A01 T01361098  RH  019%=      5-min Rain = 0
KGU1 250345Z 32003KT 14/M10 A3025 RMK A01 T01351100  RH  019%=      5-min Rain = 0
KGU1 250346Z 33003KT 14/M10 A3025 RMK A01 T01351103  RH  018%=      5-min Rain = 0
KGU1 250347Z 33002KT 14/M11 A3025 RMK A01 T01381105  RH  017%=      5-min Rain = 0
KGU1 250348Z 35001KT 14/M11 A3025 RMK A01 T01421109  RH  016%=      5-min Rain = 0
KGU1 250349Z 00000KT 15/M11 A3025 RMK A01 T01461111  RH  016%=      5-min Rain = 0
KGU1 250350Z 29003KT 15/M10 A3025 RMK A01 T01461101  RH  017%=      5-min Rain = 0
KGU1 250351Z 30004KT 14/M09 A3025 RMK A01 T01371094  RH  019%=      5-min Rain = 0
KGU1 250352Z 35003KT 13/M09 A3025 RMK A01 T01281094  RH  020%=      5-min Rain = 0
KGU1 250353Z 07002KT 13/M10 A3025 RMK A01 T01261101  RH  019%=      5-min Rain = 0
KGU1 250354Z 07002KT 13/M10 A3025 RMK A01 T01311102  RH  019%=      5-min Rain = 0
KGU1 250355Z 04001KT 13/M10 A3025 RMK A01 T01331101  RH  019%=      5-min Rain = 0
KGU1 250356Z 04002KT 13/M10 A3025 RMK A01 T01331103  RH  018%=      5-min Rain = 0
KGU1 250357Z 32003KT 13/M10 A3025 RMK A01 T01311098  RH  019%=      5-min Rain = 0
KGU1 250358Z 31002KT 13/M09 A3025 RMK A01 T01251093  RH  021%=      5-min Rain = 0
KGU1 250359Z 31002KT 12/M10 A3025 RMK A01 T01221095  RH  021%=      5-min Rain = 0
KGU1 250400Z 32003KT 12/M10 A3025 RMK A01 T01221100  RH  020%=      5-min Rain = 0
KGU1 250401Z 32004KT 13/M10 A3025 RMK A01 T01261101  RH  019%=      5-min Rain = 0
KGU1 250402Z 33004KT 13/M10 A3025 RMK A01 T01271102  RH  019%=      5-min Rain = 0
KGU1 250403Z 33004KT 13/M10 A3025 RMK A01 T01301102  RH  019%=      5-min Rain = 0
KGU1 250404Z 32003KT 13/M11 A3025 RMK A01 T01321105  RH  018%=      5-min Rain = 0
KGU1 250405Z 31003KT 14/M11 A3025 RMK A01 T01351105  RH  018%=      5-min Rain = 0
KGU1 250406Z 30005KT 14/M10 A3025 RMK A01 T01351102  RH  018%=      5-min Rain = 0
KGU1 250407Z 30004KT 14/M11 A3025 RMK A01 T01351105  RH  018%=      5-min Rain = 0
KGU1 250408Z 28001KT 14/M11 A3025 RMK A01 T01401110  RH  016%=      5-min Rain = 0
KGU1 250409Z 22001KT 15/M11 A3025 RMK A01 T01461112  RH  016%=      5-min Rain = 0
KGU1 250410Z 28003KT 15/M11 A3025 RMK A01 T01501111  RH  015%=      5-min Rain = 0
KGU1 250411Z 31004KT 15/M10 A3025 RMK A01 T01491100  RH  017%=      5-min Rain = 0
KGU1 250412Z 31006KT 13/M09 A3025 RMK A01 T01321088  RH  021%=      5-min Rain = 0
KGU1 250413Z 29007KT 12/M09 A3025 RMK A01 T01171088  RH  023%=      5-min Rain = 0
KGU1 250414Z 29007KT 11/M09 A3025 RMK A01 T01091091  RH  024%=      5-min Rain = 0
KGU1 250415Z 29007KT 11/M09 A3025 RMK A01 T01061093  RH  024%=      5-min Rain = 0
KGU1 250416Z 29005KT 10/M09 A3025 RMK A01 T01041091  RH  024%=      5-min Rain = 0
KGU1 250417Z 29003KT 11/M10 A3025 RMK A01 T01051097  RH  023%=      5-min Rain = 0
KGU1 250418Z 29004KT 11/M09 A3025 RMK A01 T01081093  RH  023%=      5-min Rain = 0
KGU1 250419Z 30004KT 10/M09 A3025 RMK A01 T01041090  RH  024%=      5-min Rain = 0
KGU1 250420Z 30006KT 10/M09 A3025 RMK A01 T01011090  RH  025%=      5-min Rain = 0
KGU1 250421Z 30007KT 10/M09 A3025 RMK A01 T00981090  RH  025%=      5-min Rain = 0
KGU1 250422Z 30007KT 10/M09 A3025 RMK A01 T00971091  RH  025%=      5-min Rain = 0
KGU1 250423Z 30006KT 10/M09 A3025 RMK A01 T00971092  RH  025%=      5-min Rain = 0
KGU1 250424Z 30006KT 10/M09 A3025 RMK A01 T00971092  RH  025%=      5-min Rain = 0
KGU1 250425Z 29007KT 10/M09 A3025 RMK A01 T00961091  RH  026%=      5-min Rain = 0
KGU1 250426Z 30007KT 09/M09 A3025 RMK A01 T00941091  RH  026%=      5-min Rain = 0
KGU1 250427Z 30007KT 09/M09 A3025 RMK A01 T00941092  RH  026%=      5-min Rain = 0
KGU1 250428Z 30007KT 09/M09 A3025 RMK A01 T00941091  RH  026%=      5-min Rain = 0
KGU1 250429Z 31006KT 09/M09 A3025 RMK A01 T00931091  RH  026%=      5-min Rain = 0
KGU1 250430Z 30007KT 09/M09 A3025 RMK A01 T00921091  RH  026%=      5-min Rain = 0
KGU1 250431Z 31007KT 09/M09 A3025 RMK A01 T00911090  RH  027%=      5-min Rain = 0
KGU1 250432Z 31007KT 09/M09 A3025 RMK A01 T00921089  RH  027%=      5-min Rain = 0
KGU1 250433Z 31006KT 09/M09 A3025 RMK A01 T00921088  RH  027%=      5-min Rain = 0
KGU1 250434Z 31007KT 09/M09 A3025 RMK A01 T00911088  RH  027%=      5-min Rain = 0
KGU1 250435Z 31006KT 09/M09 A3025 RMK A01 T00921088  RH  027%=      5-min Rain = 0
KGU1 250436Z 30006KT 09/M09 A3025 RMK A01 T00931089  RH  027%=      5-min Rain = 0
KGU1 250437Z 30006KT 10/M09 A3025 RMK A01 T00951089  RH  026%=      5-min Rain = 0
KGU1 250438Z 30006KT 10/M09 A3025 RMK A01 T00971091  RH  025%=      5-min Rain = 0
KGU1 250439Z 30006KT 10/M09 A3025 RMK A01 T00991091  RH  025%=      5-min Rain = 0
KGU1 250440Z 29007KT 10/M09 A3025 RMK A01 T00991090  RH  025%=      5-min Rain = 0
KGU1 250441Z 29007KT 10/M09 A3025 RMK A01 T00971090  RH  026%=      5-min Rain = 0
KGU1 250442Z 29007KT 10/M09 A3025 RMK A01 T00961092  RH  025%=      5-min Rain = 0
KGU1 250443Z 29008KT 10/M09 A3025 RMK A01 T00971091  RH  025%=      5-min Rain = 0
KGU1 250444Z 29009KT 10/M09 A3025 RMK A01 T00971093  RH  025%=      5-min Rain = 0
KGU1 250445Z 30008KT 10/M09 A3025 RMK A01 T00981093  RH  025%=      5-min Rain = 0
KGU1 250446Z 29009KT 10/M09 A3025 RMK A01 T00991092  RH  025%=      5-min Rain = 0
KGU1 250447Z 29009KT 10/M09 A3025 RMK A01 T01021093  RH  024%=      5-min Rain = 0
KGU1 250448Z 30009KT 10/M09 A3025 RMK A01 T01041093  RH  024%=      5-min Rain = 0
KGU1 250449Z 30009KT 11/M09 A3025 RMK A01 T01061092  RH  024%=      5-min Rain = 0
KGU1 250450Z 29010KT 11/M09 A3025 RMK A01 T01061092  RH  024%=      5-min Rain = 0
KGU1 250451Z 29010KT 11/M09 A3025 RMK A01 T01051093  RH  024%=      5-min Rain = 0
KGU1 250452Z 29010KT 11/M09 A3025 RMK A01 T01061094  RH  024%=      5-min Rain = 0
KGU1 250453Z 29010KT 11/M09 A3025 RMK A01 T01071093  RH  024%=      5-min Rain = 0
KGU1 250454Z 29010KT 11/M09 A3025 RMK A01 T01071092  RH  024%=      5-min Rain = 0
KGU1 250455Z 29010KT 11/M09 A3025 RMK A01 T01081092  RH  024%=      5-min Rain = 0
KGU1 250456Z 29010KT 11/M09 A3025 RMK A01 T01091093  RH  023%=      5-min Rain = 0
KGU1 250457Z 29009KT 11/M09 A3025 RMK A01 T01101094  RH  023%=      5-min Rain = 0
KGU1 250458Z 29009KT 11/M09 A3025 RMK A01 T01111094  RH  023%=      5-min Rain = 0
KGU1 250459Z 29009KT 11/M09 A3025 RMK A01 T01101094  RH  023%=      5-min Rain = 0

Page generated in 0.0716 seconds.